PWSweather.com
Personal Weather Stations
Station Observations
2450ARBOR
Round Rock, TX 78681

Round Rock, TX 78681

Lat: 30.535239, Lon: -97.728137

Elevation: 800

Station Type:

High Low Average
Temperature 67.6°F19.8°C 49.1°F9.5°C 56.8°F13.8°C
Dew Point 58.5°F14.7°C 47.1°F8.4°C 52.2°F11.2°C
Winds 1.7 mph 2.7 kmh Calm Calm Calm SCalm S
Wind Gusts 1.7 mph2.7 kmh -- --
Humidity 95% 71% 85%
Pressure 29.26 in990.9 mb 29.14 in986.8 mb -
Precipitation 0.33 in8.4 mm - -
Hour Temp Dew Point Humidity Winds Wind Gusts Pressure Precip Precip Rate Daily Precip Total
04:11 PM 65.3°F18.5°C 56.8°F13.8°C 74% Calm Calm -- 29.14 in986.8 mb 0.33 in8.4 mm 1.80 in45.7 mm 0.33 in8.4 mm
04:12 PM 65.5°F18.6°C 57.0°F13.9°C 74% 1.7 mph S2.7 kmh S 1.7 mph2.7 kmh 29.14 in986.8 mb 0.33 in8.4 mm 0.00 in0.0 mm 0.33 in8.4 mm
04:13 PM 65.7°F18.7°C 57.2°F14.0°C 74% 1.7 mph SW2.7 kmh SW 1.7 mph2.7 kmh 29.14 in986.8 mb 0.33 in8.4 mm 0.00 in0.0 mm 0.33 in8.4 mm
04:14 PM 65.5°F18.6°C 57.0°F13.9°C 74% 1.1 mph S1.8 kmh S 1.7 mph2.7 kmh 29.14 in986.8 mb 0.33 in8.4 mm 0.00 in0.0 mm 0.33 in8.4 mm
04:15 PM 65.1°F18.4°C 57.0°F13.9°C 75% Calm Calm 1.7 mph2.7 kmh 29.14 in986.8 mb 0.33 in8.4 mm 0.00 in0.0 mm 0.33 in8.4 mm
04:16 PM 65.1°F18.4°C 57.0°F13.9°C 75% Calm Calm 1.7 mph2.7 kmh 29.14 in986.8 mb 0.33 in8.4 mm 0.00 in0.0 mm 0.33 in8.4 mm
04:17 PM 65.8°F18.8°C 58.0°F14.4°C 76% 1.1 mph SW1.8 kmh SW 1.7 mph2.7 kmh 29.14 in986.8 mb 0.33 in8.4 mm 0.00 in0.0 mm 0.33 in8.4 mm
04:18 PM 66.2°F19.0°C 58.0°F14.4°C 75% 1.1 mph ENE1.8 kmh ENE 1.7 mph2.7 kmh 29.14 in986.8 mb 0.33 in8.4 mm 0.00 in0.0 mm 0.33 in8.4 mm
04:19 PM 66.4°F19.1°C 58.2°F14.6°C 75% Calm Calm 1.7 mph2.7 kmh 29.14 in986.8 mb 0.33 in8.4 mm 0.00 in0.0 mm 0.33 in8.4 mm
04:20 PM 66.9°F19.4°C 58.3°F14.6°C 74% Calm Calm 1.7 mph2.7 kmh 29.14 in986.8 mb 0.33 in8.4 mm 0.00 in0.0 mm 0.33 in8.4 mm
04:21 PM 66.9°F19.4°C 58.3°F14.6°C 74% 1.1 mph SSE1.8 kmh SSE 1.7 mph2.7 kmh 29.14 in986.8 mb 0.33 in8.4 mm 0.00 in0.0 mm 0.33 in8.4 mm
04:22 PM 66.9°F19.4°C 58.3°F14.6°C 74% Calm Calm 1.7 mph2.7 kmh 29.14 in986.8 mb 0.33 in8.4 mm 0.00 in0.0 mm 0.33 in8.4 mm
04:23 PM 67.1°F19.5°C 58.1°F14.5°C 73% Calm Calm 1.7 mph2.7 kmh 29.14 in986.8 mb 0.33 in8.4 mm 0.00 in0.0 mm 0.33 in8.4 mm
04:24 PM 67.3°F19.6°C 58.0°F14.4°C 72% Calm Calm 1.7 mph2.7 kmh 29.14 in986.8 mb 0.33 in8.4 mm 0.00 in0.0 mm 0.33 in8.4 mm
04:25 PM 67.5°F19.7°C 58.1°F14.5°C 72% 1.1 mph SSE1.8 kmh SSE 1.7 mph2.7 kmh 29.14 in986.8 mb 0.33 in8.4 mm 0.00 in0.0 mm 0.33 in8.4 mm
04:26 PM 67.5°F19.7°C 58.5°F14.7°C 73% Calm Calm 1.7 mph2.7 kmh 29.14 in986.8 mb 0.33 in8.4 mm 0.00 in0.0 mm 0.33 in8.4 mm
04:27 PM 67.6°F19.8°C 58.2°F14.6°C 72% Calm Calm 1.7 mph2.7 kmh 29.14 in986.8 mb 0.33 in8.4 mm 0.00 in0.0 mm 0.33 in8.4 mm
04:28 PM 67.3°F19.6°C 58.0°F14.4°C 72% Calm Calm 1.7 mph2.7 kmh 29.14 in986.8 mb 0.33 in8.4 mm 0.00 in0.0 mm 0.33 in8.4 mm
04:29 PM 67.3°F19.6°C 58.0°F14.4°C 72% Calm Calm 1.7 mph2.7 kmh 29.14 in986.8 mb 0.33 in8.4 mm 0.00 in0.0 mm 0.33 in8.4 mm
04:30 PM 67.3°F19.6°C 58.0°F14.4°C 72% Calm Calm 1.7 mph2.7 kmh 29.14 in986.8 mb 0.33 in8.4 mm 0.00 in0.0 mm 0.33 in8.4 mm
04:31 PM 67.5°F19.7°C 58.1°F14.5°C 72% 1.7 mph SSE2.7 kmh SSE 1.7 mph2.7 kmh 29.14 in986.8 mb 0.33 in8.4 mm 0.00 in0.0 mm 0.33 in8.4 mm
04:32 PM 67.3°F19.6°C 58.0°F14.4°C 72% Calm Calm 1.7 mph2.7 kmh 29.14 in986.8 mb 0.33 in8.4 mm 0.00 in0.0 mm 0.33 in8.4 mm
04:33 PM 67.1°F19.5°C 57.4°F14.1°C 71% Calm Calm 1.7 mph2.7 kmh 29.14 in986.8 mb 0.33 in8.4 mm 0.00 in0.0 mm 0.33 in8.4 mm
04:34 PM 66.9°F19.4°C 57.6°F14.2°C 72% Calm Calm 1.7 mph2.7 kmh 29.14 in986.8 mb 0.33 in8.4 mm 0.00 in0.0 mm 0.33 in8.4 mm
04:35 PM 66.4°F19.1°C 57.1°F13.9°C 72% Calm Calm 1.7 mph2.7 kmh 29.14 in986.8 mb 0.33 in8.4 mm 0.00 in0.0 mm 0.33 in8.4 mm
04:36 PM 66.4°F19.1°C 57.1°F13.9°C 72% 1.1 mph NNW1.8 kmh NNW 1.7 mph2.7 kmh 29.14 in986.8 mb 0.33 in8.4 mm 0.00 in0.0 mm 0.33 in8.4 mm
04:37 PM 66.4°F19.1°C 57.1°F13.9°C 72% 1.1 mph SSW1.8 kmh SSW 1.7 mph2.7 kmh 29.14 in986.8 mb 0.33 in8.4 mm 0.00 in0.0 mm 0.33 in8.4 mm
04:38 PM 66.4°F19.1°C 57.1°F13.9°C 72% Calm Calm 1.7 mph2.7 kmh 29.14 in986.8 mb 0.33 in8.4 mm 0.00 in0.0 mm 0.33 in8.4 mm
04:39 PM 66.4°F19.1°C 57.1°F13.9°C 72% 1.1 mph SSW1.8 kmh SSW 1.7 mph2.7 kmh 29.14 in986.8 mb 0.33 in8.4 mm 0.00 in0.0 mm 0.33 in8.4 mm
04:40 PM 66.4°F19.1°C 57.1°F13.9°C 72% 1.7 mph SSW2.7 kmh SSW 1.7 mph2.7 kmh 29.14 in986.8 mb 0.33 in8.4 mm 0.00 in0.0 mm 0.33 in8.4 mm
04:41 PM 66.4°F19.1°C 57.1°F13.9°C 72% Calm Calm 1.7 mph2.7 kmh 29.14 in986.8 mb 0.33 in8.4 mm 0.00 in0.0 mm 0.33 in8.4 mm
04:42 PM 66.6°F19.2°C 57.3°F14.1°C 72% Calm Calm 1.7 mph2.7 kmh 29.14 in986.8 mb 0.33 in8.4 mm 0.00 in0.0 mm 0.33 in8.4 mm
04:43 PM 65.8°F18.8°C 57.3°F14.1°C 74% Calm Calm 1.7 mph2.7 kmh 29.14 in986.8 mb 0.33 in8.4 mm 0.00 in0.0 mm 0.33 in8.4 mm
04:44 PM 65.7°F18.7°C 57.2°F14.0°C 74% Calm Calm 1.7 mph2.7 kmh 29.14 in986.8 mb 0.33 in8.4 mm 0.00 in0.0 mm 0.33 in8.4 mm
04:45 PM 65.3°F18.5°C 56.8°F13.8°C 74% Calm Calm 1.7 mph2.7 kmh 29.14 in986.8 mb 0.33 in8.4 mm 0.00 in0.0 mm 0.33 in8.4 mm
04:46 PM 65.1°F18.4°C 56.6°F13.7°C 74% Calm Calm 1.7 mph2.7 kmh 29.15 in987.1 mb 0.33 in8.4 mm 0.00 in0.0 mm 0.33 in8.4 mm
04:47 PM 65.1°F18.4°C 56.6°F13.7°C 74% Calm Calm 1.7 mph2.7 kmh 29.15 in987.1 mb 0.33 in8.4 mm 0.00 in0.0 mm 0.33 in8.4 mm
04:48 PM 64.9°F18.3°C 56.4°F13.6°C 74% Calm Calm 1.7 mph2.7 kmh 29.15 in987.1 mb 0.33 in8.4 mm 0.00 in0.0 mm 0.33 in8.4 mm
04:49 PM 64.8°F18.2°C 56.3°F13.5°C 74% Calm Calm 1.7 mph2.7 kmh 29.15 in987.1 mb 0.33 in8.4 mm 0.00 in0.0 mm 0.33 in8.4 mm
04:50 PM 64.6°F18.1°C 56.1°F13.4°C 74% Calm Calm 1.7 mph2.7 kmh 29.15 in987.1 mb 0.33 in8.4 mm 0.00 in0.0 mm 0.33 in8.4 mm
04:51 PM 64.6°F18.1°C 56.5°F13.6°C 75% 1.1 mph ESE1.8 kmh ESE 1.1 mph1.8 kmh 29.15 in987.1 mb 0.33 in8.4 mm 0.00 in0.0 mm 0.33 in8.4 mm
04:52 PM 64.9°F18.3°C 56.8°F13.8°C 75% Calm Calm 1.1 mph1.8 kmh 29.15 in987.1 mb 0.33 in8.4 mm 0.00 in0.0 mm 0.33 in8.4 mm
04:53 PM 65.5°F18.6°C 57.4°F14.1°C 75% Calm Calm 1.7 mph2.7 kmh 29.15 in987.1 mb 0.33 in8.4 mm 0.00 in0.0 mm 0.33 in8.4 mm
04:54 PM 65.8°F18.8°C 57.6°F14.2°C 75% Calm Calm 1.7 mph2.7 kmh 29.15 in987.1 mb 0.33 in8.4 mm 0.00 in0.0 mm 0.33 in8.4 mm
04:55 PM 65.7°F18.7°C 57.2°F14.0°C 74% Calm Calm 1.7 mph2.7 kmh 29.15 in987.1 mb 0.33 in8.4 mm 0.00 in0.0 mm 0.33 in8.4 mm
04:56 PM 65.5°F18.6°C 57.0°F13.9°C 74% Calm Calm 1.7 mph2.7 kmh 29.15 in987.1 mb 0.33 in8.4 mm 0.00 in0.0 mm 0.33 in8.4 mm
04:57 PM 65.5°F18.6°C 57.0°F13.9°C 74% Calm Calm 1.7 mph2.7 kmh 29.15 in987.1 mb 0.33 in8.4 mm 0.00 in0.0 mm 0.33 in8.4 mm
04:58 PM 65.7°F18.7°C 57.2°F14.0°C 74% Calm Calm 1.7 mph2.7 kmh 29.15 in987.1 mb 0.33 in8.4 mm 0.00 in0.0 mm 0.33 in8.4 mm
04:59 PM 65.5°F18.6°C 57.0°F13.9°C 74% Calm Calm 1.7 mph2.7 kmh 29.15 in987.1 mb 0.33 in8.4 mm 0.00 in0.0 mm 0.33 in8.4 mm
05:00 PM 65.8°F18.8°C 57.3°F14.1°C 74% Calm Calm 1.7 mph2.7 kmh 29.15 in987.1 mb 0.33 in8.4 mm 0.00 in0.0 mm 0.33 in8.4 mm
05:01 PM 66.0°F18.9°C 57.5°F14.2°C 74% Calm Calm 1.7 mph2.7 kmh 29.15 in987.1 mb 0.33 in8.4 mm 0.00 in0.0 mm 0.33 in8.4 mm
05:02 PM 66.2°F19.0°C 56.9°F13.8°C 72% Calm Calm 1.7 mph2.7 kmh 29.15 in987.1 mb 0.33 in8.4 mm 0.00 in0.0 mm 0.33 in8.4 mm
05:03 PM 66.6°F19.2°C 57.3°F14.1°C 72% Calm Calm -- 29.15 in987.1 mb 0.33 in8.4 mm 0.00 in0.0 mm 0.33 in8.4 mm
05:04 PM 66.7°F19.3°C 57.4°F14.1°C 72% Calm Calm -- 29.15 in987.1 mb 0.33 in8.4 mm 0.00 in0.0 mm 0.33 in8.4 mm
05:05 PM 66.9°F19.4°C 57.2°F14.0°C 71% Calm Calm -- 29.15 in987.1 mb 0.33 in8.4 mm 0.00 in0.0 mm 0.33 in8.4 mm
05:06 PM 66.4°F19.1°C 56.7°F13.7°C 71% Calm Calm -- 29.15 in987.1 mb 0.33 in8.4 mm 0.00 in0.0 mm 0.33 in8.4 mm
05:07 PM 66.2°F19.0°C 56.5°F13.6°C 71% Calm Calm -- 29.15 in987.1 mb 0.33 in8.4 mm 0.00 in0.0 mm 0.33 in8.4 mm
05:08 PM 66.0°F18.9°C 56.7°F13.7°C 72% Calm Calm -- 29.15 in987.1 mb 0.33 in8.4 mm 0.00 in0.0 mm 0.33 in8.4 mm
05:09 PM 66.0°F18.9°C 56.7°F13.7°C 72% Calm Calm -- 29.15 in987.1 mb 0.33 in8.4 mm 0.00 in0.0 mm 0.33 in8.4 mm
05:10 PM 66.0°F18.9°C 56.7°F13.7°C 72% Calm Calm -- 29.15 in987.1 mb 0.33 in8.4 mm 0.00 in0.0 mm 0.33 in8.4 mm
05:11 PM 66.0°F18.9°C 56.7°F13.7°C 72% Calm Calm -- 29.15 in987.1 mb 0.33 in8.4 mm 0.00 in0.0 mm 0.33 in8.4 mm
05:12 PM 66.2°F19.0°C 56.9°F13.8°C 72% Calm Calm -- 29.15 in987.1 mb 0.00 in0.0 mm 0.00 in0.0 mm 0.33 in8.4 mm
05:13 PM 66.0°F18.9°C 56.3°F13.5°C 71% Calm Calm -- 29.15 in987.1 mb 0.00 in0.0 mm 0.00 in0.0 mm 0.33 in8.4 mm
05:14 PM 65.8°F18.8°C 56.5°F13.6°C 72% Calm Calm -- 29.15 in987.1 mb 0.00 in0.0 mm 0.00 in0.0 mm 0.33 in8.4 mm
05:15 PM 65.8°F18.8°C 56.5°F13.6°C 72% Calm Calm -- 29.15 in987.1 mb 0.00 in0.0 mm 0.00 in0.0 mm 0.33 in8.4 mm
05:16 PM 65.8°F18.8°C 56.5°F13.6°C 72% Calm Calm -- 29.15 in987.1 mb 0.00 in0.0 mm 0.00 in0.0 mm 0.33 in8.4 mm
05:17 PM 65.8°F18.8°C 56.5°F13.6°C 72% 1.1 mph NE1.8 kmh NE 1.7 mph2.7 kmh 29.15 in987.1 mb 0.00 in0.0 mm 0.00 in0.0 mm 0.33 in8.4 mm
05:18 PM 65.8°F18.8°C 56.9°F13.8°C 73% Calm Calm 1.7 mph2.7 kmh 29.15 in987.1 mb 0.00 in0.0 mm 0.00 in0.0 mm 0.33 in8.4 mm
05:19 PM 65.8°F18.8°C 56.9°F13.8°C 73% Calm Calm 1.7 mph2.7 kmh 29.15 in987.1 mb 0.00 in0.0 mm 0.00 in0.0 mm 0.33 in8.4 mm
05:20 PM 65.5°F18.6°C 56.2°F13.4°C 72% Calm Calm 1.7 mph2.7 kmh 29.15 in987.1 mb 0.00 in0.0 mm 0.00 in0.0 mm 0.33 in8.4 mm
05:21 PM 65.3°F18.5°C 56.0°F13.3°C 72% Calm Calm 1.7 mph2.7 kmh 29.15 in987.1 mb 0.00 in0.0 mm 0.00 in0.0 mm 0.33 in8.4 mm
05:22 PM 65.1°F18.4°C 55.8°F13.2°C 72% Calm Calm 1.7 mph2.7 kmh 29.15 in987.1 mb 0.00 in0.0 mm 0.00 in0.0 mm 0.33 in8.4 mm
05:23 PM 65.1°F18.4°C 56.2°F13.4°C 73% Calm Calm 1.7 mph2.7 kmh 29.15 in987.1 mb 0.00 in0.0 mm 0.00 in0.0 mm 0.33 in8.4 mm
05:24 PM 65.1°F18.4°C 56.2°F13.4°C 73% Calm Calm 1.7 mph2.7 kmh 29.15 in987.1 mb 0.00 in0.0 mm 0.00 in0.0 mm 0.33 in8.4 mm
05:25 PM 65.1°F18.4°C 56.2°F13.4°C 73% Calm Calm 1.7 mph2.7 kmh 29.15 in987.1 mb 0.00 in0.0 mm 0.00 in0.0 mm 0.33 in8.4 mm
05:26 PM 64.9°F18.3°C 56.0°F13.3°C 73% 1.7 mph W2.7 kmh W 1.7 mph2.7 kmh 29.15 in987.1 mb 0.00 in0.0 mm 0.00 in0.0 mm 0.33 in8.4 mm
05:27 PM 64.6°F18.1°C 55.7°F13.2°C 73% Calm Calm 1.7 mph2.7 kmh 29.15 in987.1 mb 0.00 in0.0 mm 0.00 in0.0 mm 0.33 in8.4 mm
05:28 PM 64.6°F18.1°C 55.7°F13.2°C 73% Calm Calm 1.7 mph2.7 kmh 29.15 in987.1 mb 0.00 in0.0 mm 0.00 in0.0 mm 0.33 in8.4 mm
05:29 PM 64.6°F18.1°C 55.7°F13.2°C 73% Calm Calm 1.7 mph2.7 kmh 29.15 in987.1 mb 0.00 in0.0 mm 0.00 in0.0 mm 0.33 in8.4 mm
05:30 PM 64.4°F18.0°C 55.6°F13.1°C 73% Calm Calm 1.7 mph2.7 kmh 29.15 in987.1 mb 0.00 in0.0 mm 0.00 in0.0 mm 0.33 in8.4 mm
05:31 PM 64.2°F17.9°C 55.4°F13.0°C 73% Calm Calm 1.7 mph2.7 kmh 29.15 in987.1 mb 0.00 in0.0 mm 0.00 in0.0 mm 0.33 in8.4 mm
05:32 PM 64.2°F17.9°C 55.4°F13.0°C 73% Calm Calm 1.7 mph2.7 kmh 29.15 in987.1 mb 0.00 in0.0 mm 0.00 in0.0 mm 0.33 in8.4 mm
05:33 PM 64.2°F17.9°C 55.4°F13.0°C 73% Calm Calm 1.7 mph2.7 kmh 29.15 in987.1 mb 0.00 in0.0 mm 0.00 in0.0 mm 0.33 in8.4 mm
05:34 PM 64.6°F18.1°C 55.7°F13.2°C 73% Calm Calm 1.7 mph2.7 kmh 29.15 in987.1 mb 0.00 in0.0 mm 0.00 in0.0 mm 0.33 in8.4 mm
05:35 PM 64.4°F18.0°C 55.6°F13.1°C 73% Calm Calm 1.7 mph2.7 kmh 29.15 in987.1 mb 0.00 in0.0 mm 0.00 in0.0 mm 0.33 in8.4 mm
05:36 PM 64.4°F18.0°C 55.6°F13.1°C 73% Calm Calm 1.7 mph2.7 kmh 29.15 in987.1 mb 0.00 in0.0 mm 0.00 in0.0 mm 0.33 in8.4 mm
05:37 PM 64.4°F18.0°C 55.6°F13.1°C 73% Calm Calm -- 29.15 in987.1 mb 0.00 in0.0 mm 0.00 in0.0 mm 0.33 in8.4 mm
05:38 PM 64.2°F17.9°C 55.7°F13.2°C 74% Calm Calm -- 29.15 in987.1 mb 0.00 in0.0 mm 0.00 in0.0 mm 0.33 in8.4 mm
05:39 PM 63.9°F17.7°C 55.4°F13.0°C 74% Calm Calm -- 29.15 in987.1 mb 0.00 in0.0 mm 0.00 in0.0 mm 0.33 in8.4 mm
05:40 PM 63.9°F17.7°C 55.8°F13.2°C 75% Calm Calm -- 29.15 in987.1 mb 0.00 in0.0 mm 0.00 in0.0 mm 0.33 in8.4 mm
05:41 PM 63.7°F17.6°C 55.6°F13.1°C 75% Calm Calm -- 29.15 in987.1 mb 0.00 in0.0 mm 0.00 in0.0 mm 0.33 in8.4 mm
05:42 PM 63.9°F17.7°C 55.8°F13.2°C 75% Calm Calm -- 29.15 in987.1 mb 0.00 in0.0 mm 0.00 in0.0 mm 0.33 in8.4 mm
05:43 PM 64.0°F17.8°C 55.9°F13.3°C 75% Calm Calm -- 29.15 in987.1 mb 0.00 in0.0 mm 0.00 in0.0 mm 0.33 in8.4 mm
05:44 PM 64.0°F17.8°C 55.9°F13.3°C 75% Calm Calm -- 29.15 in987.1 mb 0.00 in0.0 mm 0.00 in0.0 mm 0.33 in8.4 mm
05:45 PM 63.9°F17.7°C 55.8°F13.2°C 75% Calm Calm -- 29.16 in987.5 mb 0.00 in0.0 mm 0.00 in0.0 mm 0.33 in8.4 mm
05:46 PM 63.9°F17.7°C 55.8°F13.2°C 75% Calm Calm -- 29.16 in987.5 mb 0.00 in0.0 mm 0.00 in0.0 mm 0.33 in8.4 mm
05:47 PM 63.5°F17.5°C 55.4°F13.0°C 75% Calm Calm -- 29.16 in987.5 mb 0.00 in0.0 mm 0.00 in0.0 mm 0.33 in8.4 mm
05:48 PM 63.5°F17.5°C 55.4°F13.0°C 75% Calm Calm -- 29.16 in987.5 mb 0.00 in0.0 mm 0.00 in0.0 mm 0.33 in8.4 mm
05:49 PM 63.5°F17.5°C 55.4°F13.0°C 75% Calm Calm -- 29.16 in987.5 mb 0.00 in0.0 mm 0.00 in0.0 mm 0.33 in8.4 mm
05:50 PM 63.5°F17.5°C 55.4°F13.0°C 75% Calm Calm -- 29.16 in987.5 mb 0.00 in0.0 mm 0.00 in0.0 mm 0.33 in8.4 mm
05:51 PM 63.5°F17.5°C 55.4°F13.0°C 75% Calm Calm -- 29.16 in987.5 mb 0.00 in0.0 mm 0.00 in0.0 mm 0.33 in8.4 mm
05:52 PM 63.5°F17.5°C 55.4°F13.0°C 75% Calm Calm -- 29.16 in987.5 mb 0.00 in0.0 mm 0.00 in0.0 mm 0.33 in8.4 mm
05:53 PM 63.5°F17.5°C 55.8°F13.2°C 76% Calm Calm -- 29.16 in987.5 mb 0.00 in0.0 mm 0.00 in0.0 mm 0.33 in8.4 mm
05:54 PM 63.5°F17.5°C 55.8°F13.2°C 76% Calm Calm -- 29.16 in987.5 mb 0.00 in0.0 mm 0.00 in0.0 mm 0.33 in8.4 mm
05:55 PM 63.1°F17.3°C 55.4°F13.0°C 76% Calm Calm -- 29.16 in987.5 mb 0.00 in0.0 mm 0.00 in0.0 mm 0.33 in8.4 mm
05:56 PM 63.0°F17.2°C 55.7°F13.2°C 77% Calm Calm -- 29.16 in987.5 mb 0.00 in0.0 mm 0.00 in0.0 mm 0.33 in8.4 mm
05:57 PM 63.0°F17.2°C 55.7°F13.2°C 77% Calm Calm -- 29.16 in987.5 mb 0.00 in0.0 mm 0.00 in0.0 mm 0.33 in8.4 mm
05:58 PM 63.0°F17.2°C 55.7°F13.2°C 77% Calm Calm -- 29.16 in987.5 mb 0.00 in0.0 mm 0.00 in0.0 mm 0.33 in8.4 mm
05:59 PM 63.0°F17.2°C 55.7°F13.2°C 77% Calm Calm -- 29.16 in987.5 mb 0.00 in0.0 mm 0.00 in0.0 mm 0.33 in8.4 mm
06:00 PM 62.8°F17.1°C 55.5°F13.1°C 77% Calm Calm -- 29.16 in987.5 mb 0.00 in0.0 mm 0.00 in0.0 mm 0.33 in8.4 mm
06:01 PM 62.8°F17.1°C 55.5°F13.1°C 77% Calm Calm -- 29.16 in987.5 mb 0.00 in0.0 mm 0.00 in0.0 mm 0.33 in8.4 mm
06:02 PM 62.6°F17.0°C 55.3°F12.9°C 77% Calm Calm -- 29.16 in987.5 mb 0.00 in0.0 mm 0.00 in0.0 mm 0.33 in8.4 mm
06:03 PM 62.6°F17.0°C 55.3°F12.9°C 77% Calm Calm -- 29.16 in987.5 mb 0.00 in0.0 mm 0.00 in0.0 mm 0.33 in8.4 mm
06:04 PM 62.6°F17.0°C 55.3°F12.9°C 77% Calm Calm -- 29.16 in987.5 mb 0.00 in0.0 mm 0.00 in0.0 mm 0.33 in8.4 mm
06:05 PM 62.8°F17.1°C 55.5°F13.1°C 77% Calm Calm -- 29.16 in987.5 mb 0.00 in0.0 mm 0.00 in0.0 mm 0.33 in8.4 mm
06:06 PM 62.6°F17.0°C 55.3°F12.9°C 77% Calm Calm -- 29.16 in987.5 mb 0.00 in0.0 mm 0.00 in0.0 mm 0.33 in8.4 mm
06:07 PM 62.4°F16.9°C 55.4°F13.0°C 78% Calm Calm -- 29.16 in987.5 mb 0.00 in0.0 mm 0.00 in0.0 mm 0.33 in8.4 mm
06:08 PM 62.4°F16.9°C 55.4°F13.0°C 78% Calm Calm -- 29.16 in987.5 mb 0.00 in0.0 mm 0.00 in0.0 mm 0.33 in8.4 mm
06:09 PM 62.4°F16.9°C 55.4°F13.0°C 78% Calm Calm -- 29.16 in987.5 mb 0.00 in0.0 mm 0.00 in0.0 mm 0.33 in8.4 mm
06:10 PM 62.4°F16.9°C 55.4°F13.0°C 78% Calm Calm -- 29.16 in987.5 mb 0.00 in0.0 mm 0.00 in0.0 mm 0.33 in8.4 mm
06:11 PM 62.4°F16.9°C 55.4°F13.0°C 78% Calm Calm -- 29.16 in987.5 mb 0.00 in0.0 mm 0.00 in0.0 mm 0.33 in8.4 mm
06:12 PM 62.4°F16.9°C 55.4°F13.0°C 78% Calm Calm -- 29.16 in987.5 mb 0.00 in0.0 mm 0.00 in0.0 mm 0.33 in8.4 mm
06:13 PM 62.4°F16.9°C 55.4°F13.0°C 78% Calm Calm -- 29.16 in987.5 mb 0.00 in0.0 mm 0.00 in0.0 mm 0.33 in8.4 mm
06:14 PM 62.4°F16.9°C 55.4°F13.0°C 78% Calm Calm -- 29.16 in987.5 mb 0.00 in0.0 mm 0.00 in0.0 mm 0.33 in8.4 mm
06:15 PM 62.2°F16.8°C 55.3°F12.9°C 78% Calm Calm -- 29.16 in987.5 mb 0.00 in0.0 mm 0.00 in0.0 mm 0.33 in8.4 mm
06:16 PM 62.1°F16.7°C 55.2°F12.9°C 78% Calm Calm -- 29.16 in987.5 mb 0.00 in0.0 mm 0.00 in0.0 mm 0.33 in8.4 mm
06:17 PM 62.1°F16.7°C 55.2°F12.9°C 78% Calm Calm -- 29.16 in987.5 mb 0.00 in0.0 mm 0.00 in0.0 mm 0.33 in8.4 mm
06:18 PM 62.1°F16.7°C 55.2°F12.9°C 78% Calm Calm -- 29.16 in987.5 mb 0.00 in0.0 mm 0.00 in0.0 mm 0.33 in8.4 mm
06:19 PM 62.1°F16.7°C 55.2°F12.9°C 78% Calm Calm -- 29.16 in987.5 mb 0.00 in0.0 mm 0.00 in0.0 mm 0.33 in8.4 mm
06:20 PM 62.1°F16.7°C 55.2°F12.9°C 78% Calm Calm -- 29.16 in987.5 mb 0.00 in0.0 mm 0.00 in0.0 mm 0.33 in8.4 mm
06:21 PM 62.1°F16.7°C 55.2°F12.9°C 78% Calm Calm -- 29.16 in987.5 mb 0.00 in0.0 mm 0.00 in0.0 mm 0.33 in8.4 mm
06:22 PM 62.1°F16.7°C 55.2°F12.9°C 78% Calm Calm -- 29.16 in987.5 mb 0.00 in0.0 mm 0.00 in0.0 mm 0.33 in8.4 mm
06:23 PM 62.1°F16.7°C 55.2°F12.9°C 78% Calm Calm -- 29.16 in987.5 mb 0.00 in0.0 mm 0.00 in0.0 mm 0.33 in8.4 mm
06:24 PM 61.9°F16.6°C 55.0°F12.8°C 78% Calm Calm -- 29.16 in987.5 mb 0.00 in0.0 mm 0.00 in0.0 mm 0.33 in8.4 mm
06:25 PM 61.9°F16.6°C 55.3°F12.9°C 79% Calm Calm -- 29.16 in987.5 mb 0.00 in0.0 mm 0.00 in0.0 mm 0.33 in8.4 mm
06:26 PM 61.7°F16.5°C 55.1°F12.8°C 79% Calm Calm -- 29.16 in987.5 mb 0.00 in0.0 mm 0.00 in0.0 mm 0.33 in8.4 mm
06:27 PM 61.7°F16.5°C 55.1°F12.8°C 79% Calm Calm -- 29.16 in987.5 mb 0.00 in0.0 mm 0.00 in0.0 mm 0.33 in8.4 mm
06:28 PM 61.7°F16.5°C 55.1°F12.8°C 79% Calm Calm -- 29.16 in987.5 mb 0.00 in0.0 mm 0.00 in0.0 mm 0.33 in8.4 mm
06:29 PM 61.7°F16.5°C 55.1°F12.8°C 79% Calm Calm -- 29.16 in987.5 mb 0.00 in0.0 mm 0.00 in0.0 mm 0.33 in8.4 mm
06:30 PM 61.7°F16.5°C 55.1°F12.8°C 79% Calm Calm -- 29.16 in987.5 mb 0.00 in0.0 mm 0.00 in0.0 mm 0.33 in8.4 mm
06:31 PM 61.7°F16.5°C 55.1°F12.8°C 79% Calm Calm -- 29.16 in987.5 mb 0.00 in0.0 mm 0.00 in0.0 mm 0.33 in8.4 mm
06:32 PM 61.7°F16.5°C 55.1°F12.8°C 79% Calm Calm -- 29.16 in987.5 mb 0.00 in0.0 mm 0.00 in0.0 mm 0.33 in8.4 mm
06:33 PM 61.5°F16.4°C 54.9°F12.7°C 79% Calm Calm -- 29.17 in987.8 mb 0.00 in0.0 mm 0.00 in0.0 mm 0.33 in8.4 mm
06:34 PM 61.5°F16.4°C 54.9°F12.7°C 79% Calm Calm -- 29.17 in987.8 mb 0.00 in0.0 mm 0.00 in0.0 mm 0.33 in8.4 mm
06:35 PM 61.5°F16.4°C 54.9°F12.7°C 79% Calm Calm -- 29.17 in987.8 mb 0.00 in0.0 mm 0.00 in0.0 mm 0.33 in8.4 mm
06:36 PM 61.5°F16.4°C 54.9°F12.7°C 79% Calm Calm -- 29.17 in987.8 mb 0.00 in0.0 mm 0.00 in0.0 mm 0.33 in8.4 mm
06:37 PM 61.5°F16.4°C 54.9°F12.7°C 79% Calm Calm -- 29.17 in987.8 mb 0.00 in0.0 mm 0.00 in0.0 mm 0.33 in8.4 mm
06:38 PM 61.3°F16.3°C 54.7°F12.6°C 79% Calm Calm -- 29.17 in987.8 mb 0.00 in0.0 mm 0.00 in0.0 mm 0.33 in8.4 mm
06:39 PM 61.3°F16.3°C 54.7°F12.6°C 79% Calm Calm -- 29.17 in987.8 mb 0.00 in0.0 mm 0.00 in0.0 mm 0.33 in8.4 mm
06:40 PM 61.3°F16.3°C 54.7°F12.6°C 79% Calm Calm -- 29.17 in987.8 mb 0.00 in0.0 mm 0.00 in0.0 mm 0.33 in8.4 mm
06:41 PM 61.3°F16.3°C 54.7°F12.6°C 79% Calm Calm -- 29.17 in987.8 mb 0.00 in0.0 mm 0.00 in0.0 mm 0.33 in8.4 mm
06:42 PM 61.2°F16.2°C 54.6°F12.6°C 79% Calm Calm -- 29.17 in987.8 mb 0.00 in0.0 mm 0.00 in0.0 mm 0.33 in8.4 mm
06:43 PM 61.2°F16.2°C 54.6°F12.6°C 79% Calm Calm -- 29.17 in987.8 mb 0.00 in0.0 mm 0.00 in0.0 mm 0.33 in8.4 mm
06:44 PM 61.2°F16.2°C 54.6°F12.6°C 79% Calm Calm -- 29.17 in987.8 mb 0.00 in0.0 mm 0.00 in0.0 mm 0.33 in8.4 mm
06:45 PM 61.2°F16.2°C 54.6°F12.6°C 79% Calm Calm -- 29.17 in987.8 mb 0.00 in0.0 mm 0.00 in0.0 mm 0.33 in8.4 mm
06:46 PM 61.2°F16.2°C 54.6°F12.6°C 79% Calm Calm -- 29.17 in987.8 mb 0.00 in0.0 mm 0.00 in0.0 mm 0.33 in8.4 mm
06:47 PM 61.0°F16.1°C 54.4°F12.4°C 79% Calm Calm -- 29.17 in987.8 mb 0.00 in0.0 mm 0.00 in0.0 mm 0.33 in8.4 mm
06:48 PM 61.0°F16.1°C 54.8°F12.7°C 80% Calm Calm -- 29.17 in987.8 mb 0.00 in0.0 mm 0.00 in0.0 mm 0.33 in8.4 mm
06:49 PM 61.0°F16.1°C 54.8°F12.7°C 80% Calm Calm -- 29.17 in987.8 mb 0.00 in0.0 mm 0.00 in0.0 mm 0.33 in8.4 mm
06:50 PM 61.0°F16.1°C 54.8°F12.7°C 80% Calm Calm -- 29.17 in987.8 mb 0.00 in0.0 mm 0.00 in0.0 mm 0.33 in8.4 mm
06:51 PM 61.0°F16.1°C 54.8°F12.7°C 80% Calm Calm -- 29.17 in987.8 mb 0.00 in0.0 mm 0.00 in0.0 mm 0.33 in8.4 mm
06:52 PM 60.8°F16.0°C 54.6°F12.6°C 80% Calm Calm -- 29.17 in987.8 mb 0.00 in0.0 mm 0.00 in0.0 mm 0.33 in8.4 mm
06:53 PM 60.8°F16.0°C 54.6°F12.6°C 80% Calm Calm -- 29.17 in987.8 mb 0.00 in0.0 mm 0.00 in0.0 mm 0.33 in8.4 mm
06:54 PM 60.8°F16.0°C 54.6°F12.6°C 80% Calm Calm -- 29.17 in987.8 mb 0.00 in0.0 mm 0.00 in0.0 mm 0.33 in8.4 mm
06:55 PM 60.8°F16.0°C 54.6°F12.6°C 80% Calm Calm -- 29.17 in987.8 mb 0.00 in0.0 mm 0.00 in0.0 mm 0.33 in8.4 mm
06:56 PM 60.8°F16.0°C 54.6°F12.6°C 80% Calm Calm -- 29.17 in987.8 mb 0.00 in0.0 mm 0.00 in0.0 mm 0.33 in8.4 mm
06:57 PM 60.8°F16.0°C 54.6°F12.6°C 80% Calm Calm -- 29.17 in987.8 mb 0.00 in0.0 mm 0.00 in0.0 mm 0.33 in8.4 mm
06:58 PM 60.8°F16.0°C 54.6°F12.6°C 80% Calm Calm -- 29.17 in987.8 mb 0.00 in0.0 mm 0.00 in0.0 mm 0.33 in8.4 mm
06:59 PM 60.8°F16.0°C 54.6°F12.6°C 80% Calm Calm -- 29.17 in987.8 mb 0.00 in0.0 mm 0.00 in0.0 mm 0.33 in8.4 mm
07:00 PM 60.8°F16.0°C 54.6°F12.6°C 80% Calm Calm -- 29.17 in987.8 mb 0.00 in0.0 mm 0.00 in0.0 mm 0.33 in8.4 mm
07:01 PM 60.8°F16.0°C 54.6°F12.6°C 80% Calm Calm -- 29.17 in987.8 mb 0.00 in0.0 mm 0.00 in0.0 mm 0.33 in8.4 mm
07:02 PM 60.6°F15.9°C 54.4°F12.4°C 80% Calm Calm -- 29.17 in987.8 mb 0.00 in0.0 mm 0.00 in0.0 mm 0.33 in8.4 mm
07:03 PM 60.6°F15.9°C 54.7°F12.6°C 81% Calm Calm -- 29.17 in987.8 mb 0.00 in0.0 mm 0.00 in0.0 mm 0.33 in8.4 mm
07:04 PM 60.4°F15.8°C 54.5°F12.5°C 81% Calm Calm -- 29.17 in987.8 mb 0.00 in0.0 mm 0.00 in0.0 mm 0.33 in8.4 mm
07:05 PM 60.4°F15.8°C 54.5°F12.5°C 81% Calm Calm -- 29.17 in987.8 mb 0.00 in0.0 mm 0.00 in0.0 mm 0.33 in8.4 mm
07:06 PM 60.4°F15.8°C 54.5°F12.5°C 81% Calm Calm -- 29.17 in987.8 mb 0.00 in0.0 mm 0.00 in0.0 mm 0.33 in8.4 mm
07:07 PM 60.4°F15.8°C 54.5°F12.5°C 81% Calm Calm -- 29.17 in987.8 mb 0.00 in0.0 mm 0.00 in0.0 mm 0.33 in8.4 mm
07:08 PM 60.4°F15.8°C 54.5°F12.5°C 81% Calm Calm -- 29.17 in987.8 mb 0.00 in0.0 mm 0.00 in0.0 mm 0.33 in8.4 mm
07:09 PM 60.4°F15.8°C 54.5°F12.5°C 81% Calm Calm -- 29.17 in987.8 mb 0.00 in0.0 mm 0.00 in0.0 mm 0.33 in8.4 mm
07:10 PM 60.3°F15.7°C 54.4°F12.4°C 81% Calm Calm -- 29.18 in988.1 mb 0.00 in0.0 mm 0.00 in0.0 mm 0.33 in8.4 mm
07:11 PM 60.3°F15.7°C 54.4°F12.4°C 81% Calm Calm -- 29.18 in988.1 mb 0.00 in0.0 mm 0.00 in0.0 mm 0.33 in8.4 mm
07:12 PM 60.1°F15.6°C 54.2°F12.3°C 81% Calm Calm -- 29.18 in988.1 mb 0.00 in0.0 mm 0.00 in0.0 mm 0.33 in8.4 mm
07:13 PM 60.1°F15.6°C 54.2°F12.3°C 81% Calm Calm -- 29.18 in988.1 mb 0.00 in0.0 mm 0.00 in0.0 mm 0.33 in8.4 mm
07:14 PM 60.1°F15.6°C 54.2°F12.3°C 81% Calm Calm -- 29.18 in988.1 mb 0.00 in0.0 mm 0.00 in0.0 mm 0.33 in8.4 mm
07:15 PM 60.1°F15.6°C 54.6°F12.6°C 82% Calm Calm -- 29.18 in988.1 mb 0.00 in0.0 mm 0.00 in0.0 mm 0.33 in8.4 mm
07:16 PM 60.1°F15.6°C 54.6°F12.6°C 82% Calm Calm -- 29.18 in988.1 mb 0.00 in0.0 mm 0.00 in0.0 mm 0.33 in8.4 mm
07:17 PM 60.1°F15.6°C 54.6°F12.6°C 82% Calm Calm -- 29.18 in988.1 mb 0.00 in0.0 mm 0.00 in0.0 mm 0.33 in8.4 mm
07:18 PM 59.9°F15.5°C 54.4°F12.4°C 82% Calm Calm -- 29.18 in988.1 mb 0.00 in0.0 mm 0.00 in0.0 mm 0.33 in8.4 mm
07:19 PM 59.9°F15.5°C 54.4°F12.4°C 82% Calm Calm -- 29.18 in988.1 mb 0.00 in0.0 mm 0.00 in0.0 mm 0.33 in8.4 mm
07:20 PM 59.9°F15.5°C 54.4°F12.4°C 82% Calm Calm -- 29.18 in988.1 mb 0.00 in0.0 mm 0.00 in0.0 mm 0.33 in8.4 mm
07:21 PM 59.7°F15.4°C 54.2°F12.3°C 82% Calm Calm -- 29.18 in988.1 mb 0.00 in0.0 mm 0.00 in0.0 mm 0.33 in8.4 mm
07:22 PM 59.7°F15.4°C 54.2°F12.3°C 82% Calm Calm -- 29.18 in988.1 mb 0.00 in0.0 mm 0.00 in0.0 mm 0.33 in8.4 mm
07:23 PM 59.7°F15.4°C 54.2°F12.3°C 82% Calm Calm -- 29.18 in988.1 mb 0.00 in0.0 mm 0.00 in0.0 mm 0.33 in8.4 mm
07:24 PM 59.5°F15.3°C 54.0°F12.2°C 82% Calm Calm -- 29.18 in988.1 mb 0.00 in0.0 mm 0.00 in0.0 mm 0.33 in8.4 mm
07:25 PM 59.5°F15.3°C 54.0°F12.2°C 82% Calm Calm -- 29.18 in988.1 mb 0.00 in0.0 mm 0.00 in0.0 mm 0.33 in8.4 mm
07:26 PM 59.5°F15.3°C 54.0°F12.2°C 82% Calm Calm -- 29.18 in988.1 mb 0.00 in0.0 mm 0.00 in0.0 mm 0.33 in8.4 mm
07:27 PM 59.4°F15.2°C 53.9°F12.2°C 82% Calm Calm -- 29.18 in988.1 mb 0.00 in0.0 mm 0.00 in0.0 mm 0.33 in8.4 mm
07:28 PM 59.4°F15.2°C 53.9°F12.2°C 82% Calm Calm -- 29.18 in988.1 mb 0.00 in0.0 mm 0.00 in0.0 mm 0.33 in8.4 mm
07:29 PM 59.4°F15.2°C 53.9°F12.2°C 82% Calm Calm -- 29.18 in988.1 mb 0.00 in0.0 mm 0.00 in0.0 mm 0.33 in8.4 mm
07:30 PM 59.4°F15.2°C 53.9°F12.2°C 82% Calm Calm -- 29.18 in988.1 mb 0.00 in0.0 mm 0.00 in0.0 mm 0.33 in8.4 mm
07:31 PM 59.2°F15.1°C 54.0°F12.2°C 83% Calm Calm -- 29.18 in988.1 mb 0.00 in0.0 mm 0.00 in0.0 mm 0.33 in8.4 mm
07:32 PM 59.2°F15.1°C 54.0°F12.2°C 83% Calm Calm -- 29.18 in988.1 mb 0.00 in0.0 mm 0.00 in0.0 mm 0.33 in8.4 mm
07:33 PM 59.0°F15.0°C 53.8°F12.1°C 83% Calm Calm -- 29.18 in988.1 mb 0.00 in0.0 mm 0.00 in0.0 mm 0.33 in8.4 mm
07:34 PM 59.0°F15.0°C 53.8°F12.1°C 83% Calm Calm -- 29.18 in988.1 mb 0.00 in0.0 mm 0.00 in0.0 mm 0.33 in8.4 mm
07:35 PM 59.0°F15.0°C 53.8°F12.1°C 83% Calm Calm -- 29.18 in988.1 mb 0.00 in0.0 mm 0.00 in0.0 mm 0.33 in8.4 mm
07:36 PM 58.8°F14.9°C 53.6°F12.0°C 83% Calm Calm -- 29.18 in988.1 mb 0.00 in0.0 mm 0.00 in0.0 mm 0.33 in8.4 mm
07:37 PM 58.8°F14.9°C 53.6°F12.0°C 83% Calm Calm -- 29.18 in988.1 mb 0.00 in0.0 mm 0.00 in0.0 mm 0.33 in8.4 mm
07:38 PM 58.8°F14.9°C 53.6°F12.0°C 83% Calm Calm -- 29.18 in988.1 mb 0.00 in0.0 mm 0.00 in0.0 mm 0.33 in8.4 mm
07:39 PM 58.6°F14.8°C 53.5°F11.9°C 83% Calm Calm -- 29.18 in988.1 mb 0.00 in0.0 mm 0.00 in0.0 mm 0.33 in8.4 mm
07:40 PM 58.6°F14.8°C 53.5°F11.9°C 83% Calm Calm -- 29.18 in988.1 mb 0.00 in0.0 mm 0.00 in0.0 mm 0.33 in8.4 mm
07:41 PM 58.5°F14.7°C 53.4°F11.9°C 83% Calm Calm -- 29.18 in988.1 mb 0.00 in0.0 mm 0.00 in0.0 mm 0.33 in8.4 mm
07:42 PM 58.5°F14.7°C 53.4°F11.9°C 83% Calm Calm -- 29.18 in988.1 mb 0.00 in0.0 mm 0.00 in0.0 mm 0.33 in8.4 mm
07:43 PM 58.3°F14.6°C 53.2°F11.8°C 83% Calm Calm -- 29.18 in988.1 mb 0.00 in0.0 mm 0.00 in0.0 mm 0.33 in8.4 mm
07:44 PM 58.3°F14.6°C 53.5°F11.9°C 84% Calm Calm -- 29.18 in988.1 mb 0.00 in0.0 mm 0.00 in0.0 mm 0.33 in8.4 mm
07:45 PM 58.3°F14.6°C 53.5°F11.9°C 84% Calm Calm -- 29.18 in988.1 mb 0.00 in0.0 mm 0.00 in0.0 mm 0.33 in8.4 mm
07:46 PM 58.3°F14.6°C 53.5°F11.9°C 84% Calm Calm -- 29.18 in988.1 mb 0.00 in0.0 mm 0.00 in0.0 mm 0.33 in8.4 mm
07:47 PM 58.1°F14.5°C 53.3°F11.8°C 84% Calm Calm -- 29.18 in988.1 mb 0.00 in0.0 mm 0.00 in0.0 mm 0.33 in8.4 mm
07:48 PM 58.1°F14.5°C 53.3°F11.8°C 84% Calm Calm -- 29.18 in988.1 mb 0.00 in0.0 mm 0.00 in0.0 mm 0.33 in8.4 mm
07:49 PM 57.9°F14.4°C 53.1°F11.7°C 84% Calm Calm -- 29.18 in988.1 mb 0.00 in0.0 mm 0.00 in0.0 mm 0.33 in8.4 mm
07:50 PM 57.9°F14.4°C 53.1°F11.7°C 84% Calm Calm -- 29.18 in988.1 mb 0.00 in0.0 mm 0.00 in0.0 mm 0.33 in8.4 mm
07:51 PM 57.9°F14.4°C 53.1°F11.7°C 84% Calm Calm -- 29.18 in988.1 mb 0.00 in0.0 mm 0.00 in0.0 mm 0.33 in8.4 mm
07:52 PM 57.7°F14.3°C 52.9°F11.6°C 84% Calm Calm -- 29.18 in988.1 mb 0.00 in0.0 mm 0.00 in0.0 mm 0.33 in8.4 mm
07:53 PM 57.7°F14.3°C 52.9°F11.6°C 84% Calm Calm -- 29.18 in988.1 mb 0.00 in0.0 mm 0.00 in0.0 mm 0.33 in8.4 mm
07:54 PM 57.7°F14.3°C 52.9°F11.6°C 84% Calm Calm -- 29.18 in988.1 mb 0.00 in0.0 mm 0.00 in0.0 mm 0.33 in8.4 mm
07:55 PM 57.6°F14.2°C 52.8°F11.6°C 84% Calm Calm -- 29.18 in988.1 mb 0.00 in0.0 mm 0.00 in0.0 mm 0.33 in8.4 mm
07:56 PM 57.6°F14.2°C 52.8°F11.6°C 84% Calm Calm -- 29.18 in988.1 mb 0.00 in0.0 mm 0.00 in0.0 mm 0.33 in8.4 mm
07:57 PM 57.6°F14.2°C 53.1°F11.7°C 85% Calm Calm -- 29.19 in988.5 mb 0.00 in0.0 mm 0.00 in0.0 mm 0.33 in8.4 mm
07:58 PM 57.6°F14.2°C 53.1°F11.7°C 85% Calm Calm -- 29.19 in988.5 mb 0.00 in0.0 mm 0.00 in0.0 mm 0.33 in8.4 mm
07:59 PM 57.4°F14.1°C 52.9°F11.6°C 85% Calm Calm -- 29.19 in988.5 mb 0.00 in0.0 mm 0.00 in0.0 mm 0.33 in8.4 mm
08:00 PM 57.4°F14.1°C 52.9°F11.6°C 85% Calm Calm -- 29.19 in988.5 mb 0.00 in0.0 mm 0.00 in0.0 mm 0.33 in8.4 mm
08:01 PM 57.4°F14.1°C 52.9°F11.6°C 85% Calm Calm -- 29.19 in988.5 mb 0.00 in0.0 mm 0.00 in0.0 mm 0.33 in8.4 mm
08:02 PM 57.2°F14.0°C 52.7°F11.5°C 85% Calm Calm -- 29.19 in988.5 mb 0.00 in0.0 mm 0.00 in0.0 mm 0.33 in8.4 mm
08:03 PM 57.2°F14.0°C 52.7°F11.5°C 85% Calm Calm -- 29.19 in988.5 mb 0.00 in0.0 mm 0.00 in0.0 mm 0.33 in8.4 mm
08:04 PM 57.2°F14.0°C 52.7°F11.5°C 85% Calm Calm -- 29.19 in988.5 mb 0.00 in0.0 mm 0.00 in0.0 mm 0.33 in8.4 mm
08:05 PM 57.0°F13.9°C 52.5°F11.4°C 85% Calm Calm -- 29.19 in988.5 mb 0.00 in0.0 mm 0.00 in0.0 mm 0.33 in8.4 mm
08:06 PM 57.0°F13.9°C 52.5°F11.4°C 85% Calm Calm -- 29.19 in988.5 mb 0.00 in0.0 mm 0.00 in0.0 mm 0.33 in8.4 mm
08:07 PM 57.0°F13.9°C 52.5°F11.4°C 85% Calm Calm -- 29.19 in988.5 mb 0.00 in0.0 mm 0.00 in0.0 mm 0.33 in8.4 mm
08:08 PM 56.8°F13.8°C 52.3°F11.3°C 85% Calm Calm -- 29.19 in988.5 mb 0.00 in0.0 mm 0.00 in0.0 mm 0.33 in8.4 mm
08:09 PM 56.8°F13.8°C 52.3°F11.3°C 85% Calm Calm -- 29.20 in988.8 mb 0.00 in0.0 mm 0.00 in0.0 mm 0.33 in8.4 mm
08:10 PM 56.8°F13.8°C 52.7°F11.5°C 86% Calm Calm -- 29.20 in988.8 mb 0.00 in0.0 mm 0.00 in0.0 mm 0.33 in8.4 mm
08:11 PM 56.7°F13.7°C 52.6°F11.4°C 86% Calm Calm -- 29.20 in988.8 mb 0.00 in0.0 mm 0.00 in0.0 mm 0.33 in8.4 mm
08:12 PM 56.7°F13.7°C 52.6°F11.4°C 86% Calm Calm -- 29.20 in988.8 mb 0.00 in0.0 mm 0.00 in0.0 mm 0.33 in8.4 mm
08:13 PM 56.7°F13.7°C 52.6°F11.4°C 86% Calm Calm -- 29.20 in988.8 mb 0.00 in0.0 mm 0.00 in0.0 mm 0.33 in8.4 mm
08:14 PM 56.5°F13.6°C 52.4°F11.3°C 86% Calm Calm -- 29.20 in988.8 mb 0.00 in0.0 mm 0.00 in0.0 mm 0.33 in8.4 mm
08:15 PM 56.5°F13.6°C 52.4°F11.3°C 86% Calm Calm -- 29.20 in988.8 mb 0.00 in0.0 mm 0.00 in0.0 mm 0.33 in8.4 mm
08:16 PM 56.5°F13.6°C 52.4°F11.3°C 86% Calm Calm -- 29.20 in988.8 mb 0.00 in0.0 mm 0.00 in0.0 mm 0.33 in8.4 mm
08:17 PM 56.3°F13.5°C 52.2°F11.2°C 86% Calm Calm -- 29.20 in988.8 mb 0.00 in0.0 mm 0.00 in0.0 mm 0.33 in8.4 mm
08:18 PM 56.3°F13.5°C 52.2°F11.2°C 86% Calm Calm -- 29.20 in988.8 mb 0.00 in0.0 mm 0.00 in0.0 mm 0.33 in8.4 mm
08:19 PM 56.3°F13.5°C 52.2°F11.2°C 86% Calm Calm -- 29.20 in988.8 mb 0.00 in0.0 mm 0.00 in0.0 mm 0.33 in8.4 mm
08:20 PM 56.3°F13.5°C 52.2°F11.2°C 86% Calm Calm -- 29.20 in988.8 mb 0.00 in0.0 mm 0.00 in0.0 mm 0.33 in8.4 mm
08:21 PM 56.1°F13.4°C 52.0°F11.1°C 86% Calm Calm -- 29.20 in988.8 mb 0.00 in0.0 mm 0.00 in0.0 mm 0.33 in8.4 mm
08:22 PM 56.1°F13.4°C 52.3°F11.3°C 87% Calm Calm -- 29.20 in988.8 mb 0.00 in0.0 mm 0.00 in0.0 mm 0.33 in8.4 mm
08:23 PM 56.1°F13.4°C 52.3°F11.3°C 87% Calm Calm -- 29.20 in988.8 mb 0.00 in0.0 mm 0.00 in0.0 mm 0.33 in8.4 mm
08:24 PM 55.9°F13.3°C 52.1°F11.2°C 87% Calm Calm -- 29.20 in988.8 mb 0.00 in0.0 mm 0.00 in0.0 mm 0.33 in8.4 mm
08:25 PM 55.9°F13.3°C 52.1°F11.2°C 87% Calm Calm -- 29.20 in988.8 mb 0.00 in0.0 mm 0.00 in0.0 mm 0.33 in8.4 mm
08:26 PM 55.9°F13.3°C 52.1°F11.2°C 87% Calm Calm -- 29.20 in988.8 mb 0.00 in0.0 mm 0.00 in0.0 mm 0.33 in8.4 mm
08:27 PM 55.9°F13.3°C 52.1°F11.2°C 87% Calm Calm -- 29.20 in988.8 mb 0.00 in0.0 mm 0.00 in0.0 mm 0.33 in8.4 mm
08:28 PM 55.8°F13.2°C 52.0°F11.1°C 87% Calm Calm -- 29.20 in988.8 mb 0.00 in0.0 mm 0.00 in0.0 mm 0.33 in8.4 mm
08:29 PM 55.8°F13.2°C 52.0°F11.1°C 87% Calm Calm -- 29.20 in988.8 mb 0.00 in0.0 mm 0.00 in0.0 mm 0.33 in8.4 mm
08:30 PM 55.8°F13.2°C 52.0°F11.1°C 87% Calm Calm -- 29.20 in988.8 mb 0.00 in0.0 mm 0.00 in0.0 mm 0.33 in8.4 mm
08:31 PM 55.6°F13.1°C 51.8°F11.0°C 87% Calm Calm -- 29.20 in988.8 mb 0.00 in0.0 mm 0.00 in0.0 mm 0.33 in8.4 mm
08:32 PM 55.6°F13.1°C 51.8°F11.0°C 87% Calm Calm -- 29.20 in988.8 mb 0.00 in0.0 mm 0.00 in0.0 mm 0.33 in8.4 mm
08:33 PM 55.6°F13.1°C 52.1°F11.2°C 88% Calm Calm -- 29.20 in988.8 mb 0.00 in0.0 mm 0.00 in0.0 mm 0.33 in8.4 mm
08:34 PM 55.6°F13.1°C 52.1°F11.2°C 88% Calm Calm -- 29.20 in988.8 mb 0.00 in0.0 mm 0.00 in0.0 mm 0.33 in8.4 mm
08:35 PM 55.4°F13.0°C 51.9°F11.1°C 88% Calm Calm -- 29.20 in988.8 mb 0.00 in0.0 mm 0.00 in0.0 mm 0.33 in8.4 mm
08:36 PM 55.4°F13.0°C 51.9°F11.1°C 88% Calm Calm -- 29.20 in988.8 mb 0.00 in0.0 mm 0.00 in0.0 mm 0.33 in8.4 mm
08:37 PM 55.4°F13.0°C 51.9°F11.1°C 88% Calm Calm -- 29.20 in988.8 mb 0.00 in0.0 mm 0.00 in0.0 mm 0.33 in8.4 mm
08:38 PM 55.4°F13.0°C 51.9°F11.1°C 88% Calm Calm -- 29.20 in988.8 mb 0.00 in0.0 mm 0.00 in0.0 mm 0.33 in8.4 mm
08:39 PM 55.4°F13.0°C 51.9°F11.1°C 88% Calm Calm -- 29.20 in988.8 mb 0.00 in0.0 mm 0.00 in0.0 mm 0.33 in8.4 mm
08:40 PM 55.4°F13.0°C 51.9°F11.1°C 88% Calm Calm -- 29.20 in988.8 mb 0.00 in0.0 mm 0.00 in0.0 mm 0.33 in8.4 mm
08:41 PM 55.2°F12.9°C 51.7°F10.9°C 88% Calm Calm -- 29.20 in988.8 mb 0.00 in0.0 mm 0.00 in0.0 mm 0.33 in8.4 mm
08:42 PM 55.2°F12.9°C 51.7°F10.9°C 88% Calm Calm -- 29.20 in988.8 mb 0.00 in0.0 mm 0.00 in0.0 mm 0.33 in8.4 mm
08:43 PM 55.2°F12.9°C 51.7°F10.9°C 88% Calm Calm -- 29.20 in988.8 mb 0.00 in0.0 mm 0.00 in0.0 mm 0.33 in8.4 mm
08:44 PM 55.2°F12.9°C 51.7°F10.9°C 88% Calm Calm -- 29.20 in988.8 mb 0.00 in0.0 mm 0.00 in0.0 mm 0.33 in8.4 mm
08:45 PM 55.2°F12.9°C 51.7°F10.9°C 88% Calm Calm -- 29.20 in988.8 mb 0.00 in0.0 mm 0.00 in0.0 mm 0.33 in8.4 mm
08:46 PM 55.2°F12.9°C 51.7°F10.9°C 88% Calm Calm -- 29.20 in988.8 mb 0.00 in0.0 mm 0.00 in0.0 mm 0.33 in8.4 mm
08:47 PM 55.0°F12.8°C 51.5°F10.8°C 88% Calm Calm -- 29.20 in988.8 mb 0.00 in0.0 mm 0.00 in0.0 mm 0.33 in8.4 mm
08:48 PM 55.0°F12.8°C 51.5°F10.8°C 88% Calm Calm -- 29.20 in988.8 mb 0.00 in0.0 mm 0.00 in0.0 mm 0.33 in8.4 mm
08:49 PM 55.0°F12.8°C 51.5°F10.8°C 88% Calm Calm -- 29.20 in988.8 mb 0.00 in0.0 mm 0.00 in0.0 mm 0.33 in8.4 mm
08:50 PM 55.0°F12.8°C 51.5°F10.8°C 88% Calm Calm -- 29.20 in988.8 mb 0.00 in0.0 mm 0.00 in0.0 mm 0.33 in8.4 mm
08:51 PM 55.0°F12.8°C 51.5°F10.8°C 88% Calm Calm -- 29.20 in988.8 mb 0.00 in0.0 mm 0.00 in0.0 mm 0.33 in8.4 mm
08:52 PM 55.0°F12.8°C 51.5°F10.8°C 88% Calm Calm -- 29.20 in988.8 mb 0.00 in0.0 mm 0.00 in0.0 mm 0.33 in8.4 mm
08:53 PM 54.9°F12.7°C 51.4°F10.8°C 88% Calm Calm -- 29.20 in988.8 mb 0.00 in0.0 mm 0.00 in0.0 mm 0.33 in8.4 mm
08:54 PM 54.9°F12.7°C 51.4°F10.8°C 88% Calm Calm -- 29.20 in988.8 mb 0.00 in0.0 mm 0.00 in0.0 mm 0.33 in8.4 mm
08:55 PM 54.9°F12.7°C 51.7°F10.9°C 89% Calm Calm -- 29.20 in988.8 mb 0.00 in0.0 mm 0.00 in0.0 mm 0.33 in8.4 mm
08:56 PM 54.9°F12.7°C 51.7°F10.9°C 89% Calm Calm -- 29.20 in988.8 mb 0.00 in0.0 mm 0.00 in0.0 mm 0.33 in8.4 mm
08:57 PM 54.9°F12.7°C 51.7°F10.9°C 89% Calm Calm -- 29.20 in988.8 mb 0.00 in0.0 mm 0.00 in0.0 mm 0.33 in8.4 mm
08:58 PM 54.7°F12.6°C 51.5°F10.8°C 89% Calm Calm -- 29.21 in989.2 mb 0.00 in0.0 mm 0.00 in0.0 mm 0.33 in8.4 mm
08:59 PM 54.7°F12.6°C 51.5°F10.8°C 89% Calm Calm -- 29.21 in989.2 mb 0.00 in0.0 mm 0.00 in0.0 mm 0.33 in8.4 mm
09:00 PM 54.7°F12.6°C 51.5°F10.8°C 89% Calm Calm -- 29.21 in989.2 mb 0.00 in0.0 mm 0.00 in0.0 mm 0.33 in8.4 mm
09:01 PM 54.7°F12.6°C 51.5°F10.8°C 89% Calm Calm -- 29.21 in989.2 mb 0.00 in0.0 mm 0.00 in0.0 mm 0.33 in8.4 mm
09:02 PM 54.7°F12.6°C 51.5°F10.8°C 89% Calm Calm -- 29.21 in989.2 mb 0.00 in0.0 mm 0.00 in0.0 mm 0.33 in8.4 mm
09:03 PM 54.5°F12.5°C 51.3°F10.7°C 89% Calm Calm -- 29.21 in989.2 mb 0.00 in0.0 mm 0.00 in0.0 mm 0.33 in8.4 mm
09:04 PM 54.5°F12.5°C 51.3°F10.7°C 89% Calm Calm -- 29.21 in989.2 mb 0.00 in0.0 mm 0.00 in0.0 mm 0.33 in8.4 mm
09:05 PM 54.5°F12.5°C 51.3°F10.7°C 89% Calm Calm -- 29.21 in989.2 mb 0.00 in0.0 mm 0.00 in0.0 mm 0.33 in8.4 mm
09:06 PM 54.5°F12.5°C 51.6°F10.9°C 90% Calm Calm -- 29.21 in989.2 mb 0.00 in0.0 mm 0.00 in0.0 mm 0.33 in8.4 mm
09:07 PM 54.5°F12.5°C 51.6°F10.9°C 90% Calm Calm -- 29.21 in989.2 mb 0.00 in0.0 mm 0.00 in0.0 mm 0.33 in8.4 mm
09:08 PM 54.3°F12.4°C 51.4°F10.8°C 90% Calm Calm -- 29.21 in989.2 mb 0.00 in0.0 mm 0.00 in0.0 mm 0.33 in8.4 mm
09:09 PM 54.3°F12.4°C 51.4°F10.8°C 90% Calm Calm -- 29.21 in989.2 mb 0.00 in0.0 mm 0.00 in0.0 mm 0.33 in8.4 mm
09:10 PM 54.3°F12.4°C 51.4°F10.8°C 90% Calm Calm -- 29.21 in989.2 mb 0.00 in0.0 mm 0.00 in0.0 mm 0.33 in8.4 mm
09:11 PM 54.3°F12.4°C 51.4°F10.8°C 90% Calm Calm -- 29.21 in989.2 mb 0.00 in0.0 mm 0.00 in0.0 mm 0.33 in8.4 mm
09:12 PM 54.3°F12.4°C 51.4°F10.8°C 90% Calm Calm -- 29.21 in989.2 mb 0.00 in0.0 mm 0.00 in0.0 mm 0.33 in8.4 mm
09:13 PM 54.3°F12.4°C 51.4°F10.8°C 90% Calm Calm -- 29.21 in989.2 mb 0.00 in0.0 mm 0.00 in0.0 mm 0.33 in8.4 mm
09:14 PM 54.3°F12.4°C 51.4°F10.8°C 90% Calm Calm -- 29.21 in989.2 mb 0.00 in0.0 mm 0.00 in0.0 mm 0.33 in8.4 mm
09:15 PM 54.1°F12.3°C 51.2°F10.7°C 90% Calm Calm -- 29.21 in989.2 mb 0.00 in0.0 mm 0.00 in0.0 mm 0.33 in8.4 mm
09:16 PM 54.1°F12.3°C 51.2°F10.7°C 90% Calm Calm -- 29.21 in989.2 mb 0.00 in0.0 mm 0.00 in0.0 mm 0.33 in8.4 mm
09:17 PM 54.1°F12.3°C 51.2°F10.7°C 90% Calm Calm -- 29.21 in989.2 mb 0.00 in0.0 mm 0.00 in0.0 mm 0.33 in8.4 mm
09:18 PM 54.1°F12.3°C 51.2°F10.7°C 90% Calm Calm -- 29.21 in989.2 mb 0.00 in0.0 mm 0.00 in0.0 mm 0.33 in8.4 mm
09:19 PM 54.1°F12.3°C 51.2°F10.7°C 90% Calm Calm -- 29.21 in989.2 mb 0.00 in0.0 mm 0.00 in0.0 mm 0.33 in8.4 mm
09:20 PM 54.1°F12.3°C 51.2°F10.7°C 90% Calm Calm -- 29.21 in989.2 mb 0.00 in0.0 mm 0.00 in0.0 mm 0.33 in8.4 mm
09:21 PM 54.1°F12.3°C 51.2°F10.7°C 90% Calm Calm -- 29.21 in989.2 mb 0.00 in0.0 mm 0.00 in0.0 mm 0.33 in8.4 mm
09:22 PM 54.1°F12.3°C 51.2°F10.7°C 90% Calm Calm -- 29.21 in989.2 mb 0.00 in0.0 mm 0.00 in0.0 mm 0.33 in8.4 mm
09:23 PM 54.1°F12.3°C 51.2°F10.7°C 90% Calm Calm -- 29.21 in989.2 mb 0.00 in0.0 mm 0.00 in0.0 mm 0.33 in8.4 mm
09:24 PM 54.1°F12.3°C 51.2°F10.7°C 90% Calm Calm -- 29.21 in989.2 mb 0.00 in0.0 mm 0.00 in0.0 mm 0.33 in8.4 mm
09:25 PM 54.1°F12.3°C 51.2°F10.7°C 90% Calm Calm -- 29.21 in989.2 mb 0.00 in0.0 mm 0.00 in0.0 mm 0.33 in8.4 mm
09:26 PM 54.0°F12.2°C 51.1°F10.6°C 90% Calm Calm -- 29.21 in989.2 mb 0.00 in0.0 mm 0.00 in0.0 mm 0.33 in8.4 mm
09:27 PM 54.0°F12.2°C 51.1°F10.6°C 90% Calm Calm -- 29.21 in989.2 mb 0.00 in0.0 mm 0.00 in0.0 mm 0.33 in8.4 mm
09:28 PM 54.0°F12.2°C 51.1°F10.6°C 90% Calm Calm -- 29.21 in989.2 mb 0.00 in0.0 mm 0.00 in0.0 mm 0.33 in8.4 mm
09:29 PM 54.0°F12.2°C 51.1°F10.6°C 90% Calm Calm -- 29.21 in989.2 mb 0.00 in0.0 mm 0.00 in0.0 mm 0.33 in8.4 mm
09:30 PM 54.0°F12.2°C 51.1°F10.6°C 90% Calm Calm -- 29.21 in989.2 mb 0.00 in0.0 mm 0.00 in0.0 mm 0.33 in8.4 mm
09:31 PM 54.0°F12.2°C 51.1°F10.6°C 90% Calm Calm -- 29.21 in989.2 mb 0.00 in0.0 mm 0.00 in0.0 mm 0.33 in8.4 mm
09:32 PM 53.8°F12.1°C 50.9°F10.5°C 90% Calm Calm -- 29.21 in989.2 mb 0.00 in0.0 mm 0.00 in0.0 mm 0.33 in8.4 mm
09:33 PM 53.8°F12.1°C 50.9°F10.5°C 90% Calm Calm -- 29.21 in989.2 mb 0.00 in0.0 mm 0.00 in0.0 mm 0.33 in8.4 mm
09:34 PM 53.8°F12.1°C 51.2°F10.7°C 91% Calm Calm -- 29.22 in989.5 mb 0.00 in0.0 mm 0.00 in0.0 mm 0.33 in8.4 mm
09:35 PM 53.8°F12.1°C 51.2°F10.7°C 91% Calm Calm -- 29.22 in989.5 mb 0.00 in0.0 mm 0.00 in0.0 mm 0.33 in8.4 mm
09:36 PM 53.8°F12.1°C 51.2°F10.7°C 91% Calm Calm -- 29.22 in989.5 mb 0.00 in0.0 mm 0.00 in0.0 mm 0.33 in8.4 mm
09:37 PM 53.8°F12.1°C 51.2°F10.7°C 91% Calm Calm -- 29.22 in989.5 mb 0.00 in0.0 mm 0.00 in0.0 mm 0.33 in8.4 mm
09:38 PM 53.6°F12.0°C 51.0°F10.6°C 91% Calm Calm -- 29.22 in989.5 mb 0.00 in0.0 mm 0.00 in0.0 mm 0.33 in8.4 mm
09:39 PM 53.6°F12.0°C 51.0°F10.6°C 91% Calm Calm -- 29.22 in989.5 mb 0.00 in0.0 mm 0.00 in0.0 mm 0.33 in8.4 mm
09:40 PM 53.6°F12.0°C 51.0°F10.6°C 91% Calm Calm -- 29.22 in989.5 mb 0.00 in0.0 mm 0.00 in0.0 mm 0.33 in8.4 mm
09:41 PM 53.6°F12.0°C 51.0°F10.6°C 91% Calm Calm -- 29.22 in989.5 mb 0.00 in0.0 mm 0.00 in0.0 mm 0.33 in8.4 mm
09:42 PM 53.4°F11.9°C 50.8°F10.4°C 91% Calm Calm -- 29.22 in989.5 mb 0.00 in0.0 mm 0.00 in0.0 mm 0.33 in8.4 mm
09:43 PM 53.4°F11.9°C 50.8°F10.4°C 91% Calm Calm -- 29.22 in989.5 mb 0.00 in0.0 mm 0.00 in0.0 mm 0.33 in8.4 mm
09:44 PM 53.4°F11.9°C 50.8°F10.4°C 91% Calm Calm -- 29.22 in989.5 mb 0.00 in0.0 mm 0.00 in0.0 mm 0.33 in8.4 mm
09:45 PM 53.4°F11.9°C 50.8°F10.4°C 91% Calm Calm -- 29.22 in989.5 mb 0.00 in0.0 mm 0.00 in0.0 mm 0.33 in8.4 mm
09:46 PM 53.2°F11.8°C 50.6°F10.3°C 91% Calm Calm -- 29.23 in989.8 mb 0.00 in0.0 mm 0.00 in0.0 mm 0.33 in8.4 mm
09:47 PM 53.2°F11.8°C 50.6°F10.3°C 91% Calm Calm -- 29.23 in989.8 mb 0.00 in0.0 mm 0.00 in0.0 mm 0.33 in8.4 mm
09:48 PM 53.2°F11.8°C 50.6°F10.3°C 91% Calm Calm -- 29.23 in989.8 mb 0.00 in0.0 mm 0.00 in0.0 mm 0.33 in8.4 mm
09:49 PM 53.2°F11.8°C 50.6°F10.3°C 91% Calm Calm -- 29.23 in989.8 mb 0.00 in0.0 mm 0.00 in0.0 mm 0.33 in8.4 mm
09:50 PM 53.2°F11.8°C 50.6°F10.3°C 91% Calm Calm -- 29.23 in989.8 mb 0.00 in0.0 mm 0.00 in0.0 mm 0.33 in8.4 mm
09:51 PM 53.2°F11.8°C 50.6°F10.3°C 91% Calm Calm -- 29.23 in989.8 mb 0.00 in0.0 mm 0.00 in0.0 mm 0.33 in8.4 mm
09:52 PM 53.1°F11.7°C 50.5°F10.3°C 91% Calm Calm -- 29.23 in989.8 mb 0.00 in0.0 mm 0.00 in0.0 mm 0.33 in8.4 mm
09:53 PM 53.1°F11.7°C 50.5°F10.3°C 91% Calm Calm -- 29.23 in989.8 mb 0.00 in0.0 mm 0.00 in0.0 mm 0.33 in8.4 mm
09:54 PM 53.1°F11.7°C 50.5°F10.3°C 91% Calm Calm -- 29.23 in989.8 mb 0.00 in0.0 mm 0.00 in0.0 mm 0.33 in8.4 mm
09:55 PM 53.1°F11.7°C 50.8°F10.4°C 92% Calm Calm -- 29.23 in989.8 mb 0.00 in0.0 mm 0.00 in0.0 mm 0.33 in8.4 mm
09:56 PM 53.1°F11.7°C 50.8°F10.4°C 92% Calm Calm -- 29.23 in989.8 mb 0.00 in0.0 mm 0.00 in0.0 mm 0.33 in8.4 mm
09:57 PM 53.1°F11.7°C 50.8°F10.4°C 92% Calm Calm -- 29.23 in989.8 mb 0.00 in0.0 mm 0.00 in0.0 mm 0.33 in8.4 mm
09:58 PM 52.9°F11.6°C 50.6°F10.3°C 92% Calm Calm -- 29.23 in989.8 mb 0.00 in0.0 mm 0.00 in0.0 mm 0.33 in8.4 mm
09:59 PM 52.9°F11.6°C 50.6°F10.3°C 92% Calm Calm -- 29.23 in989.8 mb 0.00 in0.0 mm 0.00 in0.0 mm 0.33 in8.4 mm
10:00 PM 52.7°F11.5°C 50.4°F10.2°C 92% Calm Calm -- 29.23 in989.8 mb 0.00 in0.0 mm 0.00 in0.0 mm 0.33 in8.4 mm
10:01 PM 52.7°F11.5°C 50.4°F10.2°C 92% Calm Calm -- 29.23 in989.8 mb 0.00 in0.0 mm 0.00 in0.0 mm 0.33 in8.4 mm
10:02 PM 52.7°F11.5°C 50.4°F10.2°C 92% Calm Calm -- 29.23 in989.8 mb 0.00 in0.0 mm 0.00 in0.0 mm 0.33 in8.4 mm
10:03 PM 52.7°F11.5°C 50.4°F10.2°C 92% Calm Calm -- 29.23 in989.8 mb 0.00 in0.0 mm 0.00 in0.0 mm 0.33 in8.4 mm
10:04 PM 52.7°F11.5°C 50.4°F10.2°C 92% Calm Calm -- 29.23 in989.8 mb 0.00 in0.0 mm 0.00 in0.0 mm 0.33 in8.4 mm
10:05 PM 52.7°F11.5°C 50.4°F10.2°C 92% Calm Calm -- 29.23 in989.8 mb 0.00 in0.0 mm 0.00 in0.0 mm 0.33 in8.4 mm
10:06 PM 52.7°F11.5°C 50.4°F10.2°C 92% Calm Calm -- 29.23 in989.8 mb 0.00 in0.0 mm 0.00 in0.0 mm 0.33 in8.4 mm
10:07 PM 52.7°F11.5°C 50.4°F10.2°C 92% Calm Calm -- 29.23 in989.8 mb 0.00 in0.0 mm 0.00 in0.0 mm 0.33 in8.4 mm
10:08 PM 52.5°F11.4°C 50.2°F10.1°C 92% Calm Calm -- 29.23 in989.8 mb 0.00 in0.0 mm 0.00 in0.0 mm 0.33 in8.4 mm
10:09 PM 52.5°F11.4°C 50.2°F10.1°C 92% Calm Calm -- 29.23 in989.8 mb 0.00 in0.0 mm 0.00 in0.0 mm 0.33 in8.4 mm
10:10 PM 52.5°F11.4°C 50.2°F10.1°C 92% Calm Calm -- 29.23 in989.8 mb 0.00 in0.0 mm 0.00 in0.0 mm 0.33 in8.4 mm
10:11 PM 52.5°F11.4°C 50.2°F10.1°C 92% Calm Calm -- 29.23 in989.8 mb 0.00 in0.0 mm 0.00 in0.0 mm 0.33 in8.4 mm
10:12 PM 52.5°F11.4°C 50.2°F10.1°C 92% Calm Calm -- 29.23 in989.8 mb 0.00 in0.0 mm 0.00 in0.0 mm 0.33 in8.4 mm
10:13 PM 52.3°F11.3°C 50.0°F10.0°C 92% Calm Calm -- 29.23 in989.8 mb 0.00 in0.0 mm 0.00 in0.0 mm 0.33 in8.4 mm
10:14 PM 52.3°F11.3°C 50.0°F10.0°C 92% Calm Calm -- 29.23 in989.8 mb 0.00 in0.0 mm 0.00 in0.0 mm 0.33 in8.4 mm
10:15 PM 52.3°F11.3°C 50.0°F10.0°C 92% Calm Calm -- 29.23 in989.8 mb 0.00 in0.0 mm 0.00 in0.0 mm 0.33 in8.4 mm
10:16 PM 52.3°F11.3°C 50.0°F10.0°C 92% Calm Calm -- 29.23 in989.8 mb 0.00 in0.0 mm 0.00 in0.0 mm 0.33 in8.4 mm
10:17 PM 52.3°F11.3°C 50.0°F10.0°C 92% Calm Calm -- 29.23 in989.8 mb 0.00 in0.0 mm 0.00 in0.0 mm 0.33 in8.4 mm
10:18 PM 52.3°F11.3°C 50.0°F10.0°C 92% Calm Calm -- 29.23 in989.8 mb 0.00 in0.0 mm 0.00 in0.0 mm 0.33 in8.4 mm
10:19 PM 52.3°F11.3°C 50.0°F10.0°C 92% Calm Calm -- 29.23 in989.8 mb 0.00 in0.0 mm 0.00 in0.0 mm 0.33 in8.4 mm
10:20 PM 52.2°F11.2°C 49.9°F9.9°C 92% Calm Calm -- 29.23 in989.8 mb 0.00 in0.0 mm 0.00 in0.0 mm 0.33 in8.4 mm
10:21 PM 52.2°F11.2°C 49.9°F9.9°C 92% Calm Calm -- 29.23 in989.8 mb 0.00 in0.0 mm 0.00 in0.0 mm 0.33 in8.4 mm
10:22 PM 52.2°F11.2°C 49.9°F9.9°C 92% Calm Calm -- 29.23 in989.8 mb 0.00 in0.0 mm 0.00 in0.0 mm 0.33 in8.4 mm
10:23 PM 52.2°F11.2°C 49.9°F9.9°C 92% Calm Calm -- 29.23 in989.8 mb 0.00 in0.0 mm 0.00 in0.0 mm 0.33 in8.4 mm
10:24 PM 52.2°F11.2°C 49.9°F9.9°C 92% Calm Calm -- 29.23 in989.8 mb 0.00 in0.0 mm 0.00 in0.0 mm 0.33 in8.4 mm
10:25 PM 52.0°F11.1°C 49.7°F9.8°C 92% Calm Calm -- 29.23 in989.8 mb 0.00 in0.0 mm 0.00 in0.0 mm 0.33 in8.4 mm
10:26 PM 52.0°F11.1°C 49.7°F9.8°C 92% Calm Calm -- 29.23 in989.8 mb 0.00 in0.0 mm 0.00 in0.0 mm 0.33 in8.4 mm
10:27 PM 52.0°F11.1°C 49.7°F9.8°C 92% Calm Calm -- 29.23 in989.8 mb 0.00 in0.0 mm 0.00 in0.0 mm 0.33 in8.4 mm
10:28 PM 52.0°F11.1°C 49.7°F9.8°C 92% Calm Calm -- 29.23 in989.8 mb 0.00 in0.0 mm 0.00 in0.0 mm 0.33 in8.4 mm
10:29 PM 51.8°F11.0°C 49.6°F9.8°C 92% Calm Calm -- 29.23 in989.8 mb 0.00 in0.0 mm 0.00 in0.0 mm 0.33 in8.4 mm
10:30 PM 51.8°F11.0°C 49.6°F9.8°C 92% Calm Calm -- 29.23 in989.8 mb 0.00 in0.0 mm 0.00 in0.0 mm 0.33 in8.4 mm
10:31 PM 51.8°F11.0°C 49.6°F9.8°C 92% Calm Calm -- 29.23 in989.8 mb 0.00 in0.0 mm 0.00 in0.0 mm 0.33 in8.4 mm
10:32 PM 51.8°F11.0°C 49.6°F9.8°C 92% Calm Calm -- 29.23 in989.8 mb 0.00 in0.0 mm 0.00 in0.0 mm 0.33 in8.4 mm
10:33 PM 51.8°F11.0°C 49.6°F9.8°C 92% Calm Calm -- 29.23 in989.8 mb 0.00 in0.0 mm 0.00 in0.0 mm 0.33 in8.4 mm
10:34 PM 51.6°F10.9°C 49.4°F9.7°C 92% Calm Calm -- 29.23 in989.8 mb 0.00 in0.0 mm 0.00 in0.0 mm 0.33 in8.4 mm
10:35 PM 51.6°F10.9°C 49.4°F9.7°C 92% Calm Calm -- 29.23 in989.8 mb 0.00 in0.0 mm 0.00 in0.0 mm 0.33 in8.4 mm
10:36 PM 51.6°F10.9°C 49.4°F9.7°C 92% Calm Calm -- 29.23 in989.8 mb 0.00 in0.0 mm 0.00 in0.0 mm 0.33 in8.4 mm
10:37 PM 51.6°F10.9°C 49.4°F9.7°C 92% Calm Calm -- 29.23 in989.8 mb 0.00 in0.0 mm 0.00 in0.0 mm 0.33 in8.4 mm
10:38 PM 51.6°F10.9°C 49.4°F9.7°C 92% Calm Calm -- 29.23 in989.8 mb 0.00 in0.0 mm 0.00 in0.0 mm 0.33 in8.4 mm
10:39 PM 51.6°F10.9°C 49.4°F9.7°C 92% Calm Calm -- 29.23 in989.8 mb 0.00 in0.0 mm 0.00 in0.0 mm 0.33 in8.4 mm
10:40 PM 51.6°F10.9°C 49.4°F9.7°C 92% Calm Calm -- 29.23 in989.8 mb 0.00 in0.0 mm 0.00 in0.0 mm 0.33 in8.4 mm
10:41 PM 51.4°F10.8°C 49.2°F9.6°C 92% Calm Calm -- 29.23 in989.8 mb 0.00 in0.0 mm 0.00 in0.0 mm 0.33 in8.4 mm
10:42 PM 51.3°F10.7°C 49.1°F9.5°C 92% Calm Calm -- 29.23 in989.8 mb 0.00 in0.0 mm 0.00 in0.0 mm 0.33 in8.4 mm
10:43 PM 51.3°F10.7°C 49.1°F9.5°C 92% Calm Calm -- 29.23 in989.8 mb 0.00 in0.0 mm 0.00 in0.0 mm 0.33 in8.4 mm
10:44 PM 51.3°F10.7°C 49.1°F9.5°C 92% Calm Calm -- 29.23 in989.8 mb 0.00 in0.0 mm 0.00 in0.0 mm 0.33 in8.4 mm
10:45 PM 51.3°F10.7°C 49.1°F9.5°C 92% Calm Calm -- 29.24 in990.2 mb 0.00 in0.0 mm 0.00 in0.0 mm 0.33 in8.4 mm
10:46 PM 51.3°F10.7°C 49.1°F9.5°C 92% Calm Calm -- 29.24 in990.2 mb 0.00 in0.0 mm 0.00 in0.0 mm 0.33 in8.4 mm
10:47 PM 51.1°F10.6°C 48.9°F9.4°C 92% Calm Calm -- 29.24 in990.2 mb 0.00 in0.0 mm 0.00 in0.0 mm 0.33 in8.4 mm
10:48 PM 51.1°F10.6°C 48.9°F9.4°C 92% Calm Calm -- 29.24 in990.2 mb 0.00 in0.0 mm 0.00 in0.0 mm 0.33 in8.4 mm
10:49 PM 51.1°F10.6°C 48.9°F9.4°C 92% Calm Calm -- 29.24 in990.2 mb 0.00 in0.0 mm 0.00 in0.0 mm 0.33 in8.4 mm
10:50 PM 51.1°F10.6°C 48.9°F9.4°C 92% Calm Calm -- 29.24 in990.2 mb 0.00 in0.0 mm 0.00 in0.0 mm 0.33 in8.4 mm
10:51 PM 51.1°F10.6°C 48.9°F9.4°C 92% Calm Calm -- 29.24 in990.2 mb 0.00 in0.0 mm 0.00 in0.0 mm 0.33 in8.4 mm
10:52 PM 51.1°F10.6°C 48.9°F9.4°C 92% Calm Calm -- 29.24 in990.2 mb 0.00 in0.0 mm 0.00 in0.0 mm 0.33 in8.4 mm
10:53 PM 51.1°F10.6°C 48.9°F9.4°C 92% Calm Calm -- 29.24 in990.2 mb 0.00 in0.0 mm 0.00 in0.0 mm 0.33 in8.4 mm
10:54 PM 50.9°F10.5°C 48.7°F9.3°C 92% Calm Calm -- 29.24 in990.2 mb 0.00 in0.0 mm 0.00 in0.0 mm 0.33 in8.4 mm
10:55 PM 50.9°F10.5°C 48.7°F9.3°C 92% Calm Calm -- 29.24 in990.2 mb 0.00 in0.0 mm 0.00 in0.0 mm 0.33 in8.4 mm
10:56 PM 50.9°F10.5°C 48.7°F9.3°C 92% Calm Calm -- 29.24 in990.2 mb 0.00 in0.0 mm 0.00 in0.0 mm 0.33 in8.4 mm
10:57 PM 50.7°F10.4°C 48.5°F9.2°C 92% Calm Calm -- 29.24 in990.2 mb 0.00 in0.0 mm 0.00 in0.0 mm 0.33 in8.4 mm
10:58 PM 50.7°F10.4°C 48.5°F9.2°C 92% Calm Calm -- 29.24 in990.2 mb 0.00 in0.0 mm 0.00 in0.0 mm 0.33 in8.4 mm
10:59 PM 50.7°F10.4°C 48.5°F9.2°C 92% Calm Calm -- 29.24 in990.2 mb 0.00 in0.0 mm 0.00 in0.0 mm 0.33 in8.4 mm
11:00 PM 50.7°F10.4°C 48.5°F9.2°C 92% Calm Calm -- 29.24 in990.2 mb 0.00 in0.0 mm 0.00 in0.0 mm 0.33 in8.4 mm
11:01 PM 50.7°F10.4°C 48.5°F9.2°C 92% Calm Calm -- 29.24 in990.2 mb 0.00 in0.0 mm 0.00 in0.0 mm 0.33 in8.4 mm
11:02 PM 50.5°F10.3°C 48.3°F9.1°C 92% Calm Calm -- 29.24 in990.2 mb 0.00 in0.0 mm 0.00 in0.0 mm 0.33 in8.4 mm
11:03 PM 50.5°F10.3°C 48.3°F9.1°C 92% Calm Calm -- 29.24 in990.2 mb 0.00 in0.0 mm 0.00 in0.0 mm 0.33 in8.4 mm
11:04 PM 50.5°F10.3°C 48.3°F9.1°C 92% Calm Calm -- 29.24 in990.2 mb 0.00 in0.0 mm 0.00 in0.0 mm 0.33 in8.4 mm
11:05 PM 50.5°F10.3°C 48.3°F9.1°C 92% Calm Calm -- 29.24 in990.2 mb 0.00 in0.0 mm 0.00 in0.0 mm 0.33 in8.4 mm
11:06 PM 50.5°F10.3°C 48.3°F9.1°C 92% Calm Calm -- 29.24 in990.2 mb 0.00 in0.0 mm 0.00 in0.0 mm 0.33 in8.4 mm
11:07 PM 50.5°F10.3°C 48.3°F9.1°C 92% Calm Calm -- 29.24 in990.2 mb 0.00 in0.0 mm 0.00 in0.0 mm 0.33 in8.4 mm
11:08 PM 50.5°F10.3°C 48.3°F9.1°C 92% Calm Calm -- 29.24 in990.2 mb 0.00 in0.0 mm 0.00 in0.0 mm 0.33 in8.4 mm
11:09 PM 50.4°F10.2°C 48.2°F9.0°C 92% Calm Calm -- 29.25 in990.5 mb 0.00 in0.0 mm 0.00 in0.0 mm 0.33 in8.4 mm
11:10 PM 50.4°F10.2°C 48.2°F9.0°C 92% Calm Calm -- 29.25 in990.5 mb 0.00 in0.0 mm 0.00 in0.0 mm 0.33 in8.4 mm
11:11 PM 50.4°F10.2°C 48.2°F9.0°C 92% Calm Calm -- 29.25 in990.5 mb 0.00 in0.0 mm 0.00 in0.0 mm 0.33 in8.4 mm
11:12 PM 50.4°F10.2°C 48.2°F9.0°C 92% Calm Calm -- 29.25 in990.5 mb 0.00 in0.0 mm 0.00 in0.0 mm 0.33 in8.4 mm
11:13 PM 50.2°F10.1°C 48.0°F8.9°C 92% Calm Calm -- 29.25 in990.5 mb 0.00 in0.0 mm 0.00 in0.0 mm 0.33 in8.4 mm
11:14 PM 50.2°F10.1°C 48.0°F8.9°C 92% Calm Calm -- 29.25 in990.5 mb 0.00 in0.0 mm 0.00 in0.0 mm 0.33 in8.4 mm
11:15 PM 50.0°F10.0°C 47.8°F8.8°C 92% Calm Calm -- 29.25 in990.5 mb 0.00 in0.0 mm 0.00 in0.0 mm 0.33 in8.4 mm
11:16 PM 50.0°F10.0°C 47.8°F8.8°C 92% Calm Calm -- 29.25 in990.5 mb 0.00 in0.0 mm 0.00 in0.0 mm 0.33 in8.4 mm
11:17 PM 50.0°F10.0°C 47.8°F8.8°C 92% Calm Calm -- 29.25 in990.5 mb 0.00 in0.0 mm 0.00 in0.0 mm 0.33 in8.4 mm
11:18 PM 50.0°F10.0°C 47.8°F8.8°C 92% Calm Calm -- 29.25 in990.5 mb 0.00 in0.0 mm 0.00 in0.0 mm 0.33 in8.4 mm
11:19 PM 50.0°F10.0°C 47.8°F8.8°C 92% Calm Calm -- 29.25 in990.5 mb 0.00 in0.0 mm 0.00 in0.0 mm 0.33 in8.4 mm
11:20 PM 50.0°F10.0°C 47.8°F8.8°C 92% Calm Calm -- 29.25 in990.5 mb 0.00 in0.0 mm 0.00 in0.0 mm 0.33 in8.4 mm
11:21 PM 49.8°F9.9°C 47.6°F8.7°C 92% Calm Calm -- 29.25 in990.5 mb 0.00 in0.0 mm 0.00 in0.0 mm 0.33 in8.4 mm
11:22 PM 49.8°F9.9°C 47.6°F8.7°C 92% Calm Calm -- 29.25 in990.5 mb 0.00 in0.0 mm 0.00 in0.0 mm 0.33 in8.4 mm
11:23 PM 49.8°F9.9°C 47.6°F8.7°C 92% Calm Calm -- 29.25 in990.5 mb 0.00 in0.0 mm 0.00 in0.0 mm 0.33 in8.4 mm
11:24 PM 49.8°F9.9°C 47.6°F8.7°C 92% Calm Calm -- 29.25 in990.5 mb 0.00 in0.0 mm 0.00 in0.0 mm 0.33 in8.4 mm
11:25 PM 49.8°F9.9°C 47.6°F8.7°C 92% Calm Calm -- 29.25 in990.5 mb 0.00 in0.0 mm 0.00 in0.0 mm 0.33 in8.4 mm
11:26 PM 49.6°F9.8°C 47.4°F8.6°C 92% Calm Calm -- 29.25 in990.5 mb 0.00 in0.0 mm 0.00 in0.0 mm 0.33 in8.4 mm
11:27 PM 49.6°F9.8°C 47.4°F8.6°C 92% Calm Calm -- 29.25 in990.5 mb 0.00 in0.0 mm 0.00 in0.0 mm 0.33 in8.4 mm
11:28 PM 49.6°F9.8°C 47.4°F8.6°C 92% Calm Calm -- 29.25 in990.5 mb 0.00 in0.0 mm 0.00 in0.0 mm 0.33 in8.4 mm
11:29 PM 49.6°F9.8°C 47.4°F8.6°C 92% Calm Calm -- 29.25 in990.5 mb 0.00 in0.0 mm 0.00 in0.0 mm 0.33 in8.4 mm
11:30 PM 49.6°F9.8°C 47.4°F8.6°C 92% Calm Calm -- 29.25 in990.5 mb 0.00 in0.0 mm 0.00 in0.0 mm 0.33 in8.4 mm
11:31 PM 49.6°F9.8°C 47.4°F8.6°C 92% Calm Calm -- 29.25 in990.5 mb 0.00 in0.0 mm 0.00 in0.0 mm 0.33 in8.4 mm
11:32 PM 49.5°F9.7°C 47.3°F8.5°C 92% Calm Calm -- 29.25 in990.5 mb 0.00 in0.0 mm 0.00 in0.0 mm 0.33 in8.4 mm
11:33 PM 49.5°F9.7°C 47.3°F8.5°C 92% Calm Calm -- 29.25 in990.5 mb 0.00 in0.0 mm 0.00 in0.0 mm 0.33 in8.4 mm
11:34 PM 49.5°F9.7°C 47.3°F8.5°C 92% Calm Calm -- 29.25 in990.5 mb 0.00 in0.0 mm 0.00 in0.0 mm 0.33 in8.4 mm
11:35 PM 49.3°F9.6°C 47.1°F8.4°C 92% Calm Calm -- 29.25 in990.5 mb 0.00 in0.0 mm 0.00 in0.0 mm 0.33 in8.4 mm
11:36 PM 49.3°F9.6°C 47.1°F8.4°C 92% Calm Calm -- 29.25 in990.5 mb 0.00 in0.0 mm 0.00 in0.0 mm 0.33 in8.4 mm
11:37 PM 49.3°F9.6°C 47.1°F8.4°C 92% Calm Calm -- 29.25 in990.5 mb 0.00 in0.0 mm 0.00 in0.0 mm 0.33 in8.4 mm
11:38 PM 49.3°F9.6°C 47.1°F8.4°C 92% Calm Calm -- 29.25 in990.5 mb 0.00 in0.0 mm 0.00 in0.0 mm 0.33 in8.4 mm
11:39 PM 49.3°F9.6°C 47.1°F8.4°C 92% Calm Calm -- 29.25 in990.5 mb 0.00 in0.0 mm 0.00 in0.0 mm 0.33 in8.4 mm
11:40 PM 49.3°F9.6°C 47.1°F8.4°C 92% Calm Calm -- 29.25 in990.5 mb 0.00 in0.0 mm 0.00 in0.0 mm 0.33 in8.4 mm
11:41 PM 49.3°F9.6°C 47.1°F8.4°C 92% Calm Calm -- 29.25 in990.5 mb 0.00 in0.0 mm 0.00 in0.0 mm 0.33 in8.4 mm
11:42 PM 49.3°F9.6°C 47.1°F8.4°C 92% Calm Calm -- 29.25 in990.5 mb 0.00 in0.0 mm 0.00 in0.0 mm 0.33 in8.4 mm
11:43 PM 49.3°F9.6°C 47.1°F8.4°C 92% Calm Calm -- 29.25 in990.5 mb 0.00 in0.0 mm 0.00 in0.0 mm 0.33 in8.4 mm
11:44 PM 49.3°F9.6°C 47.4°F8.6°C 93% Calm Calm -- 29.25 in990.5 mb 0.00 in0.0 mm 0.00 in0.0 mm 0.33 in8.4 mm
11:45 PM 49.3°F9.6°C 47.4°F8.6°C 93% Calm Calm -- 29.25 in990.5 mb 0.00 in0.0 mm 0.00 in0.0 mm 0.33 in8.4 mm
11:46 PM 49.1°F9.5°C 47.2°F8.4°C 93% Calm Calm -- 29.25 in990.5 mb 0.00 in0.0 mm 0.00 in0.0 mm 0.33 in8.4 mm
11:47 PM 49.1°F9.5°C 47.2°F8.4°C 93% Calm Calm -- 29.25 in990.5 mb 0.00 in0.0 mm 0.00 in0.0 mm 0.33 in8.4 mm
11:48 PM 49.1°F9.5°C 47.2°F8.4°C 93% Calm Calm -- 29.25 in990.5 mb 0.00 in0.0 mm 0.00 in0.0 mm 0.33 in8.4 mm
11:49 PM 49.1°F9.5°C 47.2°F8.4°C 93% Calm Calm -- 29.25 in990.5 mb 0.00 in0.0 mm 0.00 in0.0 mm 0.33 in8.4 mm
11:50 PM 49.1°F9.5°C 47.2°F8.4°C 93% Calm Calm -- 29.25 in990.5 mb 0.00 in0.0 mm 0.00 in0.0 mm 0.33 in8.4 mm
11:51 PM 49.1°F9.5°C 47.2°F8.4°C 93% Calm Calm -- 29.25 in990.5 mb 0.00 in0.0 mm 0.00 in0.0 mm 0.33 in8.4 mm
11:52 PM 49.1°F9.5°C 47.2°F8.4°C 93% Calm Calm -- 29.25 in990.5 mb 0.00 in0.0 mm 0.00 in0.0 mm 0.33 in8.4 mm
11:53 PM 49.1°F9.5°C 47.2°F8.4°C 93% Calm Calm -- 29.25 in990.5 mb 0.00 in0.0 mm 0.00 in0.0 mm 0.33 in8.4 mm
11:54 PM 49.1°F9.5°C 47.2°F8.4°C 93% Calm Calm -- 29.25 in990.5 mb 0.00 in0.0 mm 0.00 in0.0 mm 0.33 in8.4 mm
11:55 PM 49.1°F9.5°C 47.2°F8.4°C 93% Calm Calm -- 29.25 in990.5 mb 0.00 in0.0 mm 0.00 in0.0 mm 0.33 in8.4 mm
11:56 PM 49.1°F9.5°C 47.2°F8.4°C 93% Calm Calm -- 29.25 in990.5 mb 0.00 in0.0 mm 0.00 in0.0 mm 0.33 in8.4 mm
11:57 PM 49.3°F9.6°C 47.4°F8.6°C 93% Calm Calm -- 29.25 in990.5 mb 0.00 in0.0 mm 0.00 in0.0 mm 0.33 in8.4 mm
11:58 PM 49.3°F9.6°C 47.4°F8.6°C 93% Calm Calm -- 29.25 in990.5 mb 0.00 in0.0 mm 0.00 in0.0 mm 0.33 in8.4 mm
11:59 PM 49.3°F9.6°C 47.4°F8.6°C 93% Calm Calm -- 29.25 in990.5 mb 0.00 in0.0 mm 0.00 in0.0 mm 0.33 in8.4 mm